Observation data for Vigo Park on 02/14/2018      Previous  Date  Next       Current Mesonet Observations  Soil Data  Daily Summary Page  Observations in Plain Language
KVP1 140600Z 22007KT 04/00 A3023 RMK A01 T00390003  RH  077%=      5-min Rain = 0
KVP1 140601Z 22007KT 04/00 A3023 RMK A01 T00390003  RH  078%=      5-min Rain = 0
KVP1 140602Z 22007KT 04/00 A3023 RMK A01 T00390003  RH  078%=      5-min Rain = 0
KVP1 140603Z 22008KT 04/00 A3023 RMK A01 T00380003  RH  078%=      5-min Rain = 0
KVP1 140604Z 23008KT 04/00 A3023 RMK A01 T00380003  RH  078%=      5-min Rain = 0
KVP1 140605Z 23008KT 04/00 A3023 RMK A01 T00380003  RH  078%=      5-min Rain = 0
KVP1 140606Z 23008KT 04/00 A3023 RMK A01 T00380002  RH  077%=      5-min Rain = 0
KVP1 140607Z 23007KT 04/00 A3023 RMK A01 T00380002  RH  077%=      5-min Rain = 0
KVP1 140608Z 22007KT 04/00 A3023 RMK A01 T00370001  RH  077%=      5-min Rain = 0
KVP1 140609Z 22007KT 04/00 A3023 RMK A01 T00370001  RH  077%=      5-min Rain = 0
KVP1 140610Z 23007KT 04/00 A3023 RMK A01 T00370001  RH  077%=      5-min Rain = 0
KVP1 140611Z 23007KT 04/00 A3023 RMK A01 T00370001  RH  077%=      5-min Rain = 0
KVP1 140612Z 23007KT 04/00 A3022 RMK A01 T00370001  RH  077%=      5-min Rain = 0
KVP1 140613Z 23007KT 04/00 A3022 RMK A01 T00380001  RH  077%=      5-min Rain = 0
KVP1 140614Z 23007KT 04/00 A3022 RMK A01 T00380001  RH  077%=      5-min Rain = 0
KVP1 140615Z 23007KT 04/00 A3022 RMK A01 T00390002  RH  077%=      5-min Rain = 0
KVP1 140616Z 23007KT 04/00 A3022 RMK A01 T00390001  RH  076%=      5-min Rain = 0
KVP1 140617Z 23007KT 04/00 A3022 RMK A01 T00390001  RH  076%=      5-min Rain = 0
KVP1 140618Z 23007KT 04/00 A3022 RMK A01 T00400002  RH  076%=      5-min Rain = 0
KVP1 140619Z 23008KT 04/00 A3022 RMK A01 T00400002  RH  076%=      5-min Rain = 0
KVP1 140620Z 23007KT 04/00 A3022 RMK A01 T00410002  RH  076%=      5-min Rain = 0
KVP1 140621Z 23007KT 04/00 A3022 RMK A01 T00410002  RH  076%=      5-min Rain = 0
KVP1 140622Z 23007KT 04/00 A3022 RMK A01 T00410002  RH  076%=      5-min Rain = 0
KVP1 140623Z 23008KT 04/00 A3022 RMK A01 T00410002  RH  076%=      5-min Rain = 0
KVP1 140624Z 23008KT 04/00 A3022 RMK A01 T00420002  RH  076%=      5-min Rain = 0
KVP1 140625Z 23009KT 04/00 A3022 RMK A01 T00420003  RH  075%=      5-min Rain = 0
KVP1 140626Z 23009KT 04/00 A3023 RMK A01 T00430003  RH  075%=      5-min Rain = 0
KVP1 140627Z 23009KT 04/00 A3023 RMK A01 T00430003  RH  075%=      5-min Rain = 0
KVP1 140628Z 23008KT 04/00 A3023 RMK A01 T00430003  RH  075%=      5-min Rain = 0
KVP1 140629Z 23009KT 04/00 A3023 RMK A01 T00440004  RH  075%=      5-min Rain = 0
KVP1 140630Z 23008KT 04/00 A3023 RMK A01 T00440003  RH  075%=      5-min Rain = 0
KVP1 140631Z 23009KT 04/00 A3022 RMK A01 T00440004  RH  075%=      5-min Rain = 0
KVP1 140632Z 23009KT 05/00 A3022 RMK A01 T00450004  RH  075%=      5-min Rain = 0
KVP1 140633Z 22009KT 05/00 A3022 RMK A01 T00450004  RH  075%=      5-min Rain = 0
KVP1 140634Z 23009KT 05/01 A3022 RMK A01 T00460005  RH  075%=      5-min Rain = 0
KVP1 140635Z 23009KT 05/01 A3022 RMK A01 T00460005  RH  075%=      5-min Rain = 0
KVP1 140636Z 23009KT 05/01 A3022 RMK A01 T00470005  RH  074%=      5-min Rain = 0
KVP1 140637Z 23009KT 05/01 A3022 RMK A01 T00460005  RH  074%=      5-min Rain = 0
KVP1 140638Z 23008KT 05/01 A3022 RMK A01 T00460005  RH  074%=      5-min Rain = 0
KVP1 140639Z 23008KT 05/00 A3022 RMK A01 T00460004  RH  074%=      5-min Rain = 0
KVP1 140640Z 23009KT 05/00 A3022 RMK A01 T00450004  RH  074%=      5-min Rain = 0
KVP1 140641Z 23008KT 05/00 A3022 RMK A01 T00450003  RH  075%=      5-min Rain = 0
KVP1 140642Z 22008KT 04/00 A3022 RMK A01 T00440003  RH  075%=      5-min Rain = 0
KVP1 140643Z 22008KT 04/00 A3022 RMK A01 T00430003  RH  075%=      5-min Rain = 0
KVP1 140644Z 22008KT 04/00 A3022 RMK A01 T00430003  RH  075%=      5-min Rain = 0
KVP1 140645Z 22008KT 04/00 A3022 RMK A01 T00430004  RH  075%=      5-min Rain = 0
KVP1 140646Z 22008KT 04/00 A3022 RMK A01 T00430003  RH  075%=      5-min Rain = 0
KVP1 140647Z 22008KT 04/00 A3022 RMK A01 T00430004  RH  076%=      5-min Rain = 0
KVP1 140648Z 22008KT 04/00 A3022 RMK A01 T00430004  RH  076%=      5-min Rain = 0
KVP1 140649Z 22008KT 04/00 A3022 RMK A01 T00440004  RH  076%=      5-min Rain = 0
KVP1 140650Z 22008KT 04/00 A3022 RMK A01 T00440004  RH  075%=      5-min Rain = 0
KVP1 140651Z 22009KT 04/01 A3022 RMK A01 T00440005  RH  075%=      5-min Rain = 0
KVP1 140652Z 22008KT 04/01 A3022 RMK A01 T00440005  RH  076%=      5-min Rain = 0
KVP1 140653Z 22008KT 04/01 A3022 RMK A01 T00440005  RH  076%=      5-min Rain = 0
KVP1 140654Z 22008KT 05/01 A3022 RMK A01 T00450005  RH  076%=      5-min Rain = 0
KVP1 140655Z 23008KT 05/01 A3022 RMK A01 T00450005  RH  076%=      5-min Rain = 0
KVP1 140656Z 22008KT 05/01 A3022 RMK A01 T00450005  RH  076%=      5-min Rain = 0
KVP1 140657Z 22008KT 05/01 A3022 RMK A01 T00450006  RH  076%=      5-min Rain = 0
KVP1 140658Z 22008KT 05/01 A3022 RMK A01 T00450005  RH  076%=      5-min Rain = 0
KVP1 140659Z 22008KT 05/01 A3022 RMK A01 T00450005  RH  076%=      5-min Rain = 0
KVP1 140700Z 22008KT 05/01 A3022 RMK A01 T00450006  RH  076%=      5-min Rain = 0
KVP1 140701Z 22008KT 05/01 A3022 RMK A01 T00450006  RH  076%=      5-min Rain = 0
KVP1 140702Z 22008KT 05/01 A3022 RMK A01 T00450006  RH  076%=      5-min Rain = 0
KVP1 140703Z 22008KT 04/01 A3022 RMK A01 T00440005  RH  076%=      5-min Rain = 0
KVP1 140704Z 22008KT 04/01 A3021 RMK A01 T00440005  RH  076%=      5-min Rain = 0
KVP1 140705Z 22008KT 04/01 A3021 RMK A01 T00440006  RH  076%=      5-min Rain = 0
KVP1 140706Z 22008KT 04/01 A3021 RMK A01 T00440006  RH  076%=      5-min Rain = 0
KVP1 140707Z 22008KT 04/01 A3021 RMK A01 T00440006  RH  076%=      5-min Rain = 0
KVP1 140708Z 22008KT 04/01 A3021 RMK A01 T00440006  RH  076%=      5-min Rain = 0
KVP1 140709Z 22008KT 04/01 A3021 RMK A01 T00440006  RH  076%=      5-min Rain = 0
KVP1 140710Z 22009KT 04/01 A3021 RMK A01 T00440006  RH  076%=      5-min Rain = 0
KVP1 140711Z 22009KT 05/01 A3021 RMK A01 T00450007  RH  076%=      5-min Rain = 0
KVP1 140712Z 22009KT 05/01 A3021 RMK A01 T00450007  RH  076%=      5-min Rain = 0
KVP1 140713Z 23009KT 05/01 A3021 RMK A01 T00460007  RH  076%=      5-min Rain = 0
KVP1 140714Z 22008KT 05/01 A3021 RMK A01 T00460007  RH  076%=      5-min Rain = 0
KVP1 140715Z 23009KT 05/01 A3021 RMK A01 T00450006  RH  076%=      5-min Rain = 0
KVP1 140716Z 22009KT 04/01 A3021 RMK A01 T00440005  RH  076%=      5-min Rain = 0
KVP1 140717Z 22009KT 04/01 A3021 RMK A01 T00430005  RH  076%=      5-min Rain = 0
KVP1 140718Z 22008KT 04/01 A3021 RMK A01 T00430005  RH  077%=      5-min Rain = 0
KVP1 140719Z 22009KT 04/01 A3021 RMK A01 T00420005  RH  077%=      5-min Rain = 0
KVP1 140720Z 22008KT 04/01 A3021 RMK A01 T00420005  RH  077%=      5-min Rain = 0
KVP1 140721Z 22008KT 04/00 A3021 RMK A01 T00420004  RH  077%=      5-min Rain = 0
KVP1 140722Z 22008KT 04/00 A3021 RMK A01 T00410004  RH  077%=      5-min Rain = 0
KVP1 140723Z 22008KT 04/00 A3021 RMK A01 T00410004  RH  077%=      5-min Rain = 0
KVP1 140724Z 22008KT 04/00 A3021 RMK A01 T00400004  RH  077%=      5-min Rain = 0
KVP1 140725Z 23008KT 04/00 A3021 RMK A01 T00400004  RH  077%=      5-min Rain = 0
KVP1 140726Z 22009KT 04/00 A3021 RMK A01 T00410004  RH  077%=      5-min Rain = 0
KVP1 140727Z 22008KT 04/01 A3021 RMK A01 T00410005  RH  077%=      5-min Rain = 0
KVP1 140728Z 23008KT 04/00 A3021 RMK A01 T00410004  RH  077%=      5-min Rain = 0
KVP1 140729Z 23008KT 04/01 A3021 RMK A01 T00410005  RH  077%=      5-min Rain = 0
KVP1 140730Z 23008KT 04/00 A3021 RMK A01 T00410004  RH  077%=      5-min Rain = 0
KVP1 140731Z 23007KT 04/01 A3021 RMK A01 T00420005  RH  077%=      5-min Rain = 0
KVP1 140732Z 23007KT 04/01 A3021 RMK A01 T00410005  RH  077%=      5-min Rain = 0
KVP1 140733Z 23007KT 04/00 A3021 RMK A01 T00410004  RH  077%=      5-min Rain = 0
KVP1 140734Z 23007KT 04/01 A3021 RMK A01 T00410005  RH  077%=      5-min Rain = 0
KVP1 140735Z 23007KT 04/01 A3021 RMK A01 T00410005  RH  077%=      5-min Rain = 0
KVP1 140736Z 23008KT 04/00 A3021 RMK A01 T00410004  RH  077%=      5-min Rain = 0
KVP1 140737Z 23008KT 04/00 A3021 RMK A01 T00410004  RH  077%=      5-min Rain = 0
KVP1 140738Z 23007KT 04/01 A3021 RMK A01 T00410005  RH  077%=      5-min Rain = 0
KVP1 140739Z 24007KT 04/01 A3021 RMK A01 T00420005  RH  077%=      5-min Rain = 0
KVP1 140740Z 24007KT 04/01 A3021 RMK A01 T00420005  RH  077%=      5-min Rain = 0
KVP1 140741Z 24008KT 04/01 A3021 RMK A01 T00430006  RH  077%=      5-min Rain = 0
KVP1 140742Z 24007KT 04/01 A3021 RMK A01 T00440006  RH  076%=      5-min Rain = 0
KVP1 140743Z 24008KT 05/01 A3021 RMK A01 T00450006  RH  076%=      5-min Rain = 0
KVP1 140744Z 24007KT 05/01 A3021 RMK A01 T00460007  RH  076%=      5-min Rain = 0
KVP1 140745Z 24007KT 05/01 A3021 RMK A01 T00470007  RH  075%=      5-min Rain = 0
KVP1 140746Z 24008KT 05/01 A3021 RMK A01 T00480007  RH  075%=      5-min Rain = 0
KVP1 140747Z 24007KT 05/01 A3021 RMK A01 T00480007  RH  075%=      5-min Rain = 0
KVP1 140748Z 24007KT 05/01 A3021 RMK A01 T00480007  RH  074%=      5-min Rain = 0
KVP1 140749Z 24007KT 05/01 A3021 RMK A01 T00490007  RH  074%=      5-min Rain = 0
KVP1 140750Z 24007KT 05/01 A3021 RMK A01 T00490007  RH  074%=      5-min Rain = 0
KVP1 140751Z 24007KT 05/01 A3021 RMK A01 T00490007  RH  074%=      5-min Rain = 0
KVP1 140752Z 24008KT 05/01 A3021 RMK A01 T00510008  RH  074%=      5-min Rain = 0
KVP1 140753Z 24007KT 05/01 A3021 RMK A01 T00510008  RH  073%=      5-min Rain = 0
KVP1 140754Z 24007KT 05/01 A3021 RMK A01 T00520008  RH  073%=      5-min Rain = 0
KVP1 140755Z 24007KT 05/01 A302 RMK A01 T00520007  RH  073%=      5-min Rain = 0
KVP1 140756Z 24007KT 05/01 A302 RMK A01 T00520007  RH  073%=      5-min Rain = 0
KVP1 140757Z 24007KT 05/01 A302 RMK A01 T00520007  RH  073%=      5-min Rain = 0
KVP1 140758Z 24007KT 05/01 A302 RMK A01 T00520007  RH  073%=      5-min Rain = 0
KVP1 140759Z 24007KT 05/01 A302 RMK A01 T00520007  RH  073%=      5-min Rain = 0
KVP1 140800Z 24008KT 05/01 A302 RMK A01 T00520007  RH  073%=      5-min Rain = 0
KVP1 140801Z 24008KT 05/01 A302 RMK A01 T00520007  RH  072%=      5-min Rain = 0
KVP1 140802Z 24008KT 05/01 A302 RMK A01 T00520007  RH  072%=      5-min Rain = 0
KVP1 140803Z 24008KT 05/01 A302 RMK A01 T00520007  RH  072%=      5-min Rain = 0
KVP1 140804Z 24009KT 05/01 A302 RMK A01 T00530007  RH  072%=      5-min Rain = 0
KVP1 140805Z 23008KT 05/01 A302 RMK A01 T00540007  RH  072%=      5-min Rain = 0
KVP1 140806Z 23009KT 05/01 A302 RMK A01 T00540007  RH  072%=      5-min Rain = 0
KVP1 140807Z 23009KT 06/01 A302 RMK A01 T00550007  RH  072%=      5-min Rain = 0
KVP1 140808Z 23009KT 06/01 A302 RMK A01 T00550007  RH  071%=      5-min Rain = 0
KVP1 140809Z 23009KT 06/01 A302 RMK A01 T00550007  RH  071%=      5-min Rain = 0
KVP1 140810Z 23009KT 06/01 A302 RMK A01 T00550007  RH  071%=      5-min Rain = 0
KVP1 140811Z 23009KT 06/01 A302 RMK A01 T00560007  RH  071%=      5-min Rain = 0
KVP1 140812Z 23009KT 06/01 A302 RMK A01 T00560008  RH  071%=      5-min Rain = 0
KVP1 140813Z 23009KT 06/01 A302 RMK A01 T00560008  RH  071%=      5-min Rain = 0
KVP1 140814Z 23009KT 06/01 A302 RMK A01 T00560008  RH  071%=      5-min Rain = 0
KVP1 140815Z 23009KT 06/01 A302 RMK A01 T00570008  RH  071%=      5-min Rain = 0
KVP1 140816Z 23009KT 06/01 A302 RMK A01 T00570008  RH  071%=      5-min Rain = 0
KVP1 140817Z 23009KT 06/01 A302 RMK A01 T00570008  RH  071%=      5-min Rain = 0
KVP1 140818Z 23009KT 06/01 A302 RMK A01 T00570008  RH  071%=      5-min Rain = 0
KVP1 140819Z 23009KT 06/01 A302 RMK A01 T00570008  RH  071%=      5-min Rain = 0
KVP1 140820Z 23009KT 06/01 A302 RMK A01 T00560007  RH  071%=      5-min Rain = 0
KVP1 140821Z 23009KT 06/01 A302 RMK A01 T00560007  RH  071%=      5-min Rain = 0
KVP1 140822Z 23009KT 06/01 A302 RMK A01 T00560007  RH  071%=      5-min Rain = 0
KVP1 140823Z 23010KT 06/01 A302 RMK A01 T00560007  RH  071%=      5-min Rain = 0
KVP1 140824Z 23010KT 06/01 A302 RMK A01 T00560007  RH  071%=      5-min Rain = 0
KVP1 140825Z 23010KT 06/01 A302 RMK A01 T00560007  RH  071%=      5-min Rain = 0
KVP1 140826Z 23010KT 06/01 A302 RMK A01 T00570007  RH  071%=      5-min Rain = 0
KVP1 140827Z 23011KT 06/01 A302 RMK A01 T00570008  RH  070%=      5-min Rain = 0
KVP1 140828Z 23010KT 06/01 A302 RMK A01 T00570008  RH  070%=      5-min Rain = 0
KVP1 140829Z 22011KT 06/01 A302 RMK A01 T00580008  RH  070%=      5-min Rain = 0
KVP1 140830Z 23011KT 06/01 A302 RMK A01 T00590009  RH  070%=      5-min Rain = 0
KVP1 140831Z 23011KT 06/01 A302 RMK A01 T00600009  RH  070%=      5-min Rain = 0
KVP1 140832Z 22011KT 06/01 A302 RMK A01 T00610010  RH  069%=      5-min Rain = 0
KVP1 140833Z 23011KT 06/01 A302 RMK A01 T00620010  RH  069%=      5-min Rain = 0
KVP1 140834Z 22011KT 06/01 A302 RMK A01 T00630010  RH  069%=      5-min Rain = 0
KVP1 140835Z 23011KT 06/01 A302 RMK A01 T00630010  RH  069%=      5-min Rain = 0
KVP1 140836Z 22011KT 06/01 A302 RMK A01 T00640010  RH  068%=      5-min Rain = 0
KVP1 140837Z 23011KT 06/01 A302 RMK A01 T00640010  RH  068%=      5-min Rain = 0
KVP1 140838Z 23011KT 06/01 A302 RMK A01 T00640010  RH  068%=      5-min Rain = 0
KVP1 140839Z 23010KT 07/01 A302 RMK A01 T00650010  RH  068%=      5-min Rain = 0
KVP1 140840Z 23010KT 06/01 A302 RMK A01 T00640010  RH  068%=      5-min Rain = 0
KVP1 140841Z 23011KT 07/01 A302 RMK A01 T00650010  RH  068%=      5-min Rain = 0
KVP1 140842Z 23010KT 07/01 A302 RMK A01 T00650010  RH  068%=      5-min Rain = 0
KVP1 140843Z 23010KT 07/01 A302 RMK A01 T00650010  RH  068%=      5-min Rain = 0
KVP1 140844Z 23010KT 07/01 A3019 RMK A01 T00650010  RH  068%=      5-min Rain = 0
KVP1 140845Z 23010KT 06/01 A3019 RMK A01 T00640010  RH  068%=      5-min Rain = 0
KVP1 140846Z 23010KT 07/01 A3019 RMK A01 T00650010  RH  068%=      5-min Rain = 0
KVP1 140847Z 23010KT 06/01 A3019 RMK A01 T00640010  RH  068%=      5-min Rain = 0
KVP1 140848Z 23009KT 06/01 A3019 RMK A01 T00640009  RH  068%=      5-min Rain = 0
KVP1 140849Z 23009KT 06/01 A3019 RMK A01 T00640009  RH  068%=      5-min Rain = 0
KVP1 140850Z 23009KT 06/01 A3019 RMK A01 T00640009  RH  068%=      5-min Rain = 0
KVP1 140851Z 23009KT 06/01 A3019 RMK A01 T00630009  RH  068%=      5-min Rain = 0
KVP1 140852Z 23009KT 06/01 A3019 RMK A01 T00630009  RH  068%=      5-min Rain = 0
KVP1 140853Z 23009KT 06/01 A3019 RMK A01 T00630008  RH  068%=      5-min Rain = 0
KVP1 140854Z 23010KT 06/01 A3019 RMK A01 T00620008  RH  068%=      5-min Rain = 0
KVP1 140855Z 24009KT 06/01 A3019 RMK A01 T00620008  RH  068%=      5-min Rain = 0
KVP1 140856Z 24010KT 06/01 A3019 RMK A01 T00610008  RH  068%=      5-min Rain = 0
KVP1 140857Z 24010KT 06/01 A3019 RMK A01 T00610007  RH  068%=      5-min Rain = 0
KVP1 140858Z 24010KT 06/01 A3019 RMK A01 T00620008  RH  068%=      5-min Rain = 0
KVP1 140859Z 24010KT 06/01 A3019 RMK A01 T00620008  RH  068%=      5-min Rain = 0
KVP1 140900Z 24010KT 06/01 A3019 RMK A01 T00630008  RH  068%=      5-min Rain = 0
KVP1 140901Z 23010KT 06/01 A3019 RMK A01 T00630008  RH  068%=      5-min Rain = 0
KVP1 140902Z 23010KT 06/01 A3019 RMK A01 T00640009  RH  068%=      5-min Rain = 0
KVP1 140903Z 23010KT 06/01 A3019 RMK A01 T00640009  RH  068%=      5-min Rain = 0
KVP1 140904Z 23010KT 06/01 A3019 RMK A01 T00640009  RH  068%=      5-min Rain = 0
KVP1 140905Z 23010KT 07/01 A3019 RMK A01 T00650009  RH  067%=      5-min Rain = 0
KVP1 140906Z 23010KT 07/01 A3018 RMK A01 T00660010  RH  067%=      5-min Rain = 0
KVP1 140907Z 23010KT 07/01 A3018 RMK A01 T00670010  RH  067%=      5-min Rain = 0
KVP1 140908Z 23009KT 07/01 A3018 RMK A01 T00670010  RH  067%=      5-min Rain = 0
KVP1 140909Z 23009KT 07/01 A3018 RMK A01 T00670010  RH  067%=      5-min Rain = 0
KVP1 140910Z 23009KT 07/01 A3018 RMK A01 T00680010  RH  067%=      5-min Rain = 0
KVP1 140911Z 23009KT 07/01 A3018 RMK A01 T00670010  RH  067%=      5-min Rain = 0
KVP1 140912Z 23009KT 07/01 A3018 RMK A01 T00670009  RH  067%=      5-min Rain = 0
KVP1 140913Z 23009KT 07/01 A3018 RMK A01 T00660009  RH  067%=      5-min Rain = 0
KVP1 140914Z 23008KT 07/01 A3018 RMK A01 T00660009  RH  067%=      5-min Rain = 0
KVP1 140915Z 23009KT 07/01 A3018 RMK A01 T00660009  RH  067%=      5-min Rain = 0
KVP1 140916Z 24009KT 07/01 A3018 RMK A01 T00650009  RH  067%=      5-min Rain = 0
KVP1 140917Z 24009KT 07/01 A3018 RMK A01 T00650009  RH  067%=      5-min Rain = 0
KVP1 140918Z 24008KT 07/01 A3018 RMK A01 T00650008  RH  067%=      5-min Rain = 0
KVP1 140919Z 24009KT 07/01 A3018 RMK A01 T00650008  RH  067%=      5-min Rain = 0
KVP1 140920Z 24009KT 07/01 A3018 RMK A01 T00650008  RH  067%=      5-min Rain = 0
KVP1 140921Z 24009KT 06/01 A3018 RMK A01 T00640008  RH  067%=      5-min Rain = 0
KVP1 140922Z 24010KT 06/01 A3018 RMK A01 T00640007  RH  067%=      5-min Rain = 0
KVP1 140923Z 23009KT 06/01 A3018 RMK A01 T00640007  RH  067%=      5-min Rain = 0
KVP1 140924Z 23009KT 06/01 A3018 RMK A01 T00640007  RH  067%=      5-min Rain = 0
KVP1 140925Z 22009KT 06/01 A3018 RMK A01 T00630007  RH  067%=      5-min Rain = 0
KVP1 140926Z 23009KT 06/01 A3018 RMK A01 T00620006  RH  067%=      5-min Rain = 0
KVP1 140927Z 22010KT 06/01 A3018 RMK A01 T00620007  RH  067%=      5-min Rain = 0
KVP1 140928Z 22009KT 06/01 A3018 RMK A01 T00620006  RH  068%=      5-min Rain = 0
KVP1 140929Z 22009KT 06/01 A3018 RMK A01 T00610006  RH  068%=      5-min Rain = 0
KVP1 140930Z 22009KT 06/01 A3018 RMK A01 T00610006  RH  068%=      5-min Rain = 0
KVP1 140931Z 23009KT 06/01 A3018 RMK A01 T00610007  RH  068%=      5-min Rain = 0
KVP1 140932Z 23009KT 06/01 A3017 RMK A01 T00610007  RH  068%=      5-min Rain = 0
KVP1 140933Z 23009KT 06/01 A3017 RMK A01 T00610007  RH  068%=      5-min Rain = 0
KVP1 140934Z 23009KT 06/01 A3017 RMK A01 T00610007  RH  068%=      5-min Rain = 0
KVP1 140935Z 23009KT 06/01 A3018 RMK A01 T00610006  RH  068%=      5-min Rain = 0
KVP1 140936Z 23009KT 06/01 A3018 RMK A01 T00600006  RH  068%=      5-min Rain = 0
KVP1 140937Z 23009KT 06/01 A3018 RMK A01 T00590005  RH  068%=      5-min Rain = 0
KVP1 140938Z 22009KT 06/01 A3018 RMK A01 T00580005  RH  068%=      5-min Rain = 0
KVP1 140939Z 23009KT 06/00 A3018 RMK A01 T00580004  RH  069%=      5-min Rain = 0
KVP1 140940Z 22009KT 06/00 A3018 RMK A01 T00570004  RH  069%=      5-min Rain = 0
KVP1 140941Z 23009KT 06/00 A3018 RMK A01 T00570004  RH  069%=      5-min Rain = 0
KVP1 140942Z 22009KT 06/00 A3018 RMK A01 T00570004  RH  069%=      5-min Rain = 0
KVP1 140943Z 22009KT 06/00 A3018 RMK A01 T00560004  RH  069%=      5-min Rain = 0
KVP1 140944Z 22009KT 06/00 A3018 RMK A01 T00560004  RH  069%=      5-min Rain = 0
KVP1 140945Z 22009KT 06/00 A3018 RMK A01 T00560004  RH  069%=      5-min Rain = 0
KVP1 140946Z 23009KT 06/00 A3018 RMK A01 T00560004  RH  069%=      5-min Rain = 0
KVP1 140947Z 23008KT 06/00 A3018 RMK A01 T00560003  RH  069%=      5-min Rain = 0
KVP1 140948Z 23009KT 06/00 A3018 RMK A01 T00550003  RH  069%=      5-min Rain = 0
KVP1 140949Z 23009KT 06/00 A3018 RMK A01 T00550003  RH  069%=      5-min Rain = 0
KVP1 140950Z 23009KT 06/00 A3018 RMK A01 T00550003  RH  069%=      5-min Rain = 0
KVP1 140951Z 23009KT 06/00 A3018 RMK A01 T00550003  RH  069%=      5-min Rain = 0
KVP1 140952Z 24009KT 06/00 A3018 RMK A01 T00550003  RH  069%=      5-min Rain = 0
KVP1 140953Z 23008KT 06/00 A3018 RMK A01 T00550003  RH  069%=      5-min Rain = 0
KVP1 140954Z 23008KT 05/00 A3018 RMK A01 T00540003  RH  069%=      5-min Rain = 0
KVP1 140955Z 23008KT 05/00 A3018 RMK A01 T00540002  RH  069%=      5-min Rain = 0
KVP1 140956Z 23008KT 05/00 A3018 RMK A01 T00540002  RH  069%=      5-min Rain = 0
KVP1 140957Z 23008KT 05/00 A3018 RMK A01 T00540002  RH  070%=      5-min Rain = 0
KVP1 140958Z 23008KT 05/00 A3018 RMK A01 T00530002  RH  070%=      5-min Rain = 0
KVP1 140959Z 23008KT 05/00 A3017 RMK A01 T00530002  RH  070%=      5-min Rain = 0
KVP1 141000Z 23008KT 05/00 A3017 RMK A01 T00530002  RH  070%=      5-min Rain = 0
KVP1 141001Z 22009KT 05/00 A3017 RMK A01 T00530002  RH  070%=      5-min Rain = 0
KVP1 141002Z 22009KT 05/00 A3018 RMK A01 T00530002  RH  070%=      5-min Rain = 0
KVP1 141003Z 22009KT 05/00 A3018 RMK A01 T00530002  RH  070%=      5-min Rain = 0
KVP1 141004Z 22009KT 05/00 A3018 RMK A01 T00530002  RH  070%=      5-min Rain = 0
KVP1 141005Z 22009KT 05/00 A3018 RMK A01 T00520002  RH  070%=      5-min Rain = 0
KVP1 141006Z 22009KT 05/00 A3017 RMK A01 T00530002  RH  070%=      5-min Rain = 0
KVP1 141007Z 22009KT 05/00 A3017 RMK A01 T00520001  RH  070%=      5-min Rain = 0
KVP1 141008Z 21009KT 05/00 A3017 RMK A01 T00510001  RH  070%=      5-min Rain = 0
KVP1 141009Z 21009KT 05/00 A3017 RMK A01 T005000-0  RH  070%=      5-min Rain = 0
KVP1 141010Z 21009KT 05/00 A3017 RMK A01 T004900-0  RH  070%=      5-min Rain = 0
KVP1 141011Z 21009KT 05/00 A3017 RMK A01 T004900-0  RH  070%=      5-min Rain = 0
KVP1 141012Z 21009KT 05/00 A3017 RMK A01 T00490000  RH  070%=      5-min Rain = 0
KVP1 141013Z 22008KT 05/00 A3017 RMK A01 T00490000  RH  070%=      5-min Rain = 0
KVP1 141014Z 21009KT 05/00 A3017 RMK A01 T004900-0  RH  070%=      5-min Rain = 0
KVP1 141015Z 21009KT 05/M00 A3017 RMK A01 T00491001  RH  071%=      5-min Rain = 0
KVP1 141016Z 22009KT 05/M00 A3018 RMK A01 T00481001  RH  071%=      5-min Rain = 0
KVP1 141017Z 22009KT 05/M00 A3017 RMK A01 T00481001  RH  071%=      5-min Rain = 0
KVP1 141018Z 22008KT 05/00 A3017 RMK A01 T004800-0  RH  071%=      5-min Rain = 0
KVP1 141019Z 22008KT 05/00 A3017 RMK A01 T004800-0  RH  071%=      5-min Rain = 0
KVP1 141020Z 22008KT 05/00 A3017 RMK A01 T004800-0  RH  071%=      5-min Rain = 0
KVP1 141021Z 22008KT 05/M00 A3017 RMK A01 T00471001  RH  071%=      5-min Rain = 0
KVP1 141022Z 22008KT 05/M00 A3017 RMK A01 T00471001  RH  071%=      5-min Rain = 0
KVP1 141023Z 22007KT 05/M00 A3018 RMK A01 T00461001  RH  071%=      5-min Rain = 0
KVP1 141024Z 22007KT 05/M00 A3018 RMK A01 T00461001  RH  071%=      5-min Rain = 0
KVP1 141025Z 22007KT 05/M00 A3018 RMK A01 T00461001  RH  072%=      5-min Rain = 0
KVP1 141026Z 22008KT 05/M00 A3018 RMK A01 T00461001  RH  072%=      5-min Rain = 0
KVP1 141027Z 22008KT 05/M00 A3018 RMK A01 T00461001  RH  072%=      5-min Rain = 0
KVP1 141028Z 22008KT 05/M00 A3018 RMK A01 T00451001  RH  072%=      5-min Rain = 0
KVP1 141029Z 22008KT 05/M00 A3018 RMK A01 T00451001  RH  072%=      5-min Rain = 0
KVP1 141030Z 22008KT 05/M00 A3018 RMK A01 T00451001  RH  072%=      5-min Rain = 0
KVP1 141031Z 22008KT 05/M00 A3018 RMK A01 T00451001  RH  072%=      5-min Rain = 0
KVP1 141032Z 22009KT 05/M00 A3018 RMK A01 T00451001  RH  072%=      5-min Rain = 0
KVP1 141033Z 22009KT 05/M00 A3018 RMK A01 T00451001  RH  072%=      5-min Rain = 0
KVP1 141034Z 22009KT 05/M00 A3018 RMK A01 T00461001  RH  072%=      5-min Rain = 0
KVP1 141035Z 22009KT 05/00 A3018 RMK A01 T004700-0  RH  071%=      5-min Rain = 0
KVP1 141036Z 22009KT 05/M00 A3018 RMK A01 T00471001  RH  071%=      5-min Rain = 0
KVP1 141037Z 22009KT 05/M00 A3018 RMK A01 T00471001  RH  071%=      5-min Rain = 0
KVP1 141038Z 22008KT 05/M00 A3018 RMK A01 T00471001  RH  071%=      5-min Rain = 0
KVP1 141039Z 23007KT 05/M00 A3017 RMK A01 T00471001  RH  071%=      5-min Rain = 0
KVP1 141040Z 23006KT 05/M00 A3017 RMK A01 T00471002  RH  071%=      5-min Rain = 0
KVP1 141041Z 22006KT 05/M00 A3017 RMK A01 T00471002  RH  071%=      5-min Rain = 0
KVP1 141042Z 22006KT 05/M00 A3017 RMK A01 T00461002  RH  071%=      5-min Rain = 0
KVP1 141043Z 22006KT 05/M00 A3017 RMK A01 T00451003  RH  071%=      5-min Rain = 0
KVP1 141044Z 22006KT 04/M00 A3017 RMK A01 T00441004  RH  071%=      5-min Rain = 0
KVP1 141045Z 22006KT 04/M00 A3017 RMK A01 T00431004  RH  071%=      5-min Rain = 0
KVP1 141046Z 22007KT 04/M01 A3017 RMK A01 T00421005  RH  072%=      5-min Rain = 0
KVP1 141047Z 22007KT 04/M01 A3017 RMK A01 T00411005  RH  072%=      5-min Rain = 0
KVP1 141048Z 22007KT 04/M01 A3017 RMK A01 T00401005  RH  072%=      5-min Rain = 0
KVP1 141049Z 22008KT 04/M01 A3017 RMK A01 T00401005  RH  072%=      5-min Rain = 0
KVP1 141050Z 22008KT 04/M01 A3017 RMK A01 T00401005  RH  073%=      5-min Rain = 0
KVP1 141051Z 22008KT 04/M01 A3017 RMK A01 T00401005  RH  073%=      5-min Rain = 0
KVP1 141052Z 22008KT 04/M01 A3017 RMK A01 T00401005  RH  073%=      5-min Rain = 0
KVP1 141053Z 22008KT 04/M01 A3017 RMK A01 T00401005  RH  073%=      5-min Rain = 0
KVP1 141054Z 22008KT 04/M01 A3017 RMK A01 T00401005  RH  073%=      5-min Rain = 0
KVP1 141055Z 22008KT 04/M00 A3017 RMK A01 T00411004  RH  073%=      5-min Rain = 0
KVP1 141056Z 22008KT 04/M00 A3017 RMK A01 T00411004  RH  072%=      5-min Rain = 0
KVP1 141057Z 22008KT 04/M00 A3017 RMK A01 T00411004  RH  072%=      5-min Rain = 0
KVP1 141058Z 22009KT 04/M00 A3017 RMK A01 T00421003  RH  072%=      5-min Rain = 0
KVP1 141059Z 22008KT 04/M00 A3017 RMK A01 T00431003  RH  072%=      5-min Rain = 0
KVP1 141100Z 23008KT 04/M00 A3017 RMK A01 T00431003  RH  072%=      5-min Rain = 0
KVP1 141101Z 22008KT 04/M00 A3016 RMK A01 T00441003  RH  072%=      5-min Rain = 0
KVP1 141102Z 22008KT 05/M00 A3016 RMK A01 T00451002  RH  071%=      5-min Rain = 0
KVP1 141103Z 22008KT 05/M00 A3016 RMK A01 T00451003  RH  071%=      5-min Rain = 0
KVP1 141104Z 21008KT 05/M00 A3016 RMK A01 T00451003  RH  071%=      5-min Rain = 0
KVP1 141105Z 21008KT 05/M00 A3016 RMK A01 T00451003  RH  071%=      5-min Rain = 0
KVP1 141106Z 21008KT 05/M00 A3017 RMK A01 T00451003  RH  071%=      5-min Rain = 0
KVP1 141107Z 21009KT 05/M00 A3017 RMK A01 T00451003  RH  071%=      5-min Rain = 0
KVP1 141108Z 21010KT 04/M00 A3017 RMK A01 T00441004  RH  071%=      5-min Rain = 0
KVP1 141109Z 21010KT 04/M00 A3017 RMK A01 T00441004  RH  071%=      5-min Rain = 0
KVP1 141110Z 22010KT 04/M00 A3017 RMK A01 T00441004  RH  071%=      5-min Rain = 0
KVP1 141111Z 21010KT 04/M00 A3017 RMK A01 T00441004  RH  071%=      5-min Rain = 0
KVP1 141112Z 22011KT 04/M00 A3017 RMK A01 T00441004  RH  071%=      5-min Rain = 0
KVP1 141113Z 22010KT 05/M00 A3017 RMK A01 T00451004  RH  070%=      5-min Rain = 0
KVP1 141114Z 22010KT 05/M00 A3017 RMK A01 T00461004  RH  070%=      5-min Rain = 0
KVP1 141115Z 22010KT 05/M00 A3017 RMK A01 T00461004  RH  070%=      5-min Rain = 0
KVP1 141116Z 22010KT 05/M00 A3017 RMK A01 T00461004  RH  070%=      5-min Rain = 0
KVP1 141117Z 22009KT 05/M00 A3017 RMK A01 T00461004  RH  070%=      5-min Rain = 0
KVP1 141118Z 22009KT 05/M01 A3017 RMK A01 T00461005  RH  070%=      5-min Rain = 0
KVP1 141119Z 22009KT 05/M01 A3017 RMK A01 T00461005  RH  070%=      5-min Rain = 0
KVP1 141120Z 22009KT 05/M01 A3017 RMK A01 T00451005  RH  070%=      5-min Rain = 0
KVP1 141121Z 22009KT 04/M01 A3017 RMK A01 T00441006  RH  070%=      5-min Rain = 0
KVP1 141122Z 22009KT 04/M01 A3017 RMK A01 T00431006  RH  071%=      5-min Rain = 0
KVP1 141123Z 22008KT 04/M01 A3017 RMK A01 T00421006  RH  071%=      5-min Rain = 0
KVP1 141124Z 22009KT 04/M01 A3017 RMK A01 T00411006  RH  071%=      5-min Rain = 0
KVP1 141125Z 22009KT 04/M01 A3017 RMK A01 T00411006  RH  071%=      5-min Rain = 0
KVP1 141126Z 22009KT 04/M01 A3017 RMK A01 T00411006  RH  071%=      5-min Rain = 0
KVP1 141127Z 22009KT 04/M01 A3017 RMK A01 T00401007  RH  071%=      5-min Rain = 0
KVP1 141128Z 22009KT 04/M01 A3017 RMK A01 T00401007  RH  071%=      5-min Rain = 0
KVP1 141129Z 22009KT 04/M01 A3017 RMK A01 T00401007  RH  071%=      5-min Rain = 0
KVP1 141130Z 22009KT 04/M01 A3017 RMK A01 T00401007  RH  072%=      5-min Rain = 0
KVP1 141131Z 22009KT 04/M01 A3017 RMK A01 T00401007  RH  071%=      5-min Rain = 0
KVP1 141132Z 23009KT 04/M01 A3017 RMK A01 T00401007  RH  071%=      5-min Rain = 0
KVP1 141133Z 23010KT 04/M01 A3017 RMK A01 T00401008  RH  071%=      5-min Rain = 0
KVP1 141134Z 23010KT 04/M01 A3017 RMK A01 T00391008  RH  071%=      5-min Rain = 0
KVP1 141135Z 23009KT 04/M01 A3017 RMK A01 T00401008  RH  071%=      5-min Rain = 0
KVP1 141136Z 23009KT 04/M01 A3017 RMK A01 T00401008  RH  071%=      5-min Rain = 0
KVP1 141137Z 23009KT 04/M01 A3017 RMK A01 T00401008  RH  071%=      5-min Rain = 0
KVP1 141138Z 23010KT 04/M01 A3017 RMK A01 T00401008  RH  071%=      5-min Rain = 0
KVP1 141139Z 23010KT 04/M01 A3017 RMK A01 T00411008  RH  071%=      5-min Rain = 0
KVP1 141140Z 23010KT 04/M01 A3017 RMK A01 T00421008  RH  070%=      5-min Rain = 0
KVP1 141141Z 23010KT 04/M01 A3017 RMK A01 T00421007  RH  070%=      5-min Rain = 0
KVP1 141142Z 23010KT 04/M01 A3017 RMK A01 T00431008  RH  070%=      5-min Rain = 0
KVP1 141143Z 23009KT 04/M01 A3017 RMK A01 T00431007  RH  070%=      5-min Rain = 0
KVP1 141144Z 23010KT 04/M01 A3017 RMK A01 T00441007  RH  069%=      5-min Rain = 0
KVP1 141145Z 23009KT 04/M01 A3017 RMK A01 T00441007  RH  069%=      5-min Rain = 0
KVP1 141146Z 23009KT 05/M01 A3017 RMK A01 T00451007  RH  069%=      5-min Rain = 0
KVP1 141147Z 23009KT 05/M01 A3017 RMK A01 T00451007  RH  069%=      5-min Rain = 0
KVP1 141148Z 22009KT 05/M01 A3017 RMK A01 T00461007  RH  069%=      5-min Rain = 0
KVP1 141149Z 23009KT 05/M01 A3017 RMK A01 T00461007  RH  069%=      5-min Rain = 0
KVP1 141150Z 23009KT 05/M01 A3017 RMK A01 T00461007  RH  069%=      5-min Rain = 0
KVP1 141151Z 23009KT 05/M01 A3017 RMK A01 T00461007  RH  069%=      5-min Rain = 0
KVP1 141152Z 22009KT 05/M01 A3017 RMK A01 T00461007  RH  068%=      5-min Rain = 0
KVP1 141153Z 23010KT 05/M01 A3017 RMK A01 T00461007  RH  068%=      5-min Rain = 0
KVP1 141154Z 23009KT 05/M01 A3017 RMK A01 T00461007  RH  069%=      5-min Rain = 0
KVP1 141155Z 22010KT 05/M01 A3017 RMK A01 T00451008  RH  069%=      5-min Rain = 0
KVP1 141156Z 22009KT 05/M01 A3017 RMK A01 T00451008  RH  069%=      5-min Rain = 0
KVP1 141157Z 22009KT 05/M01 A3017 RMK A01 T00451008  RH  069%=      5-min Rain = 0
KVP1 141158Z 22010KT 04/M01 A3017 RMK A01 T00441008  RH  069%=      5-min Rain = 0
KVP1 141159Z 22010KT 04/M01 A3017 RMK A01 T00431009  RH  069%=      5-min Rain = 0
KVP1 141200Z 22010KT 04/M01 A3017 RMK A01 T00421009  RH  069%=      5-min Rain = 0
KVP1 141201Z 22010KT 04/M01 A3017 RMK A01 T00421009  RH  070%=      5-min Rain = 0
KVP1 141202Z 22010KT 04/M01 A3018 RMK A01 T00421009  RH  070%=      5-min Rain = 0
KVP1 141203Z 22010KT 04/M01 A3018 RMK A01 T00411009  RH  070%=      5-min Rain = 0
KVP1 141204Z 23010KT 04/M01 A3018 RMK A01 T00411009  RH  070%=      5-min Rain = 0
KVP1 141205Z 23010KT 04/M01 A3018 RMK A01 T00411009  RH  070%=      5-min Rain = 0
KVP1 141206Z 23010KT 04/M01 A3017 RMK A01 T00411009  RH  070%=      5-min Rain = 0
KVP1 141207Z 23009KT 04/M01 A3017 RMK A01 T00411009  RH  070%=      5-min Rain = 0
KVP1 141208Z 22009KT 04/M01 A3017 RMK A01 T00421009  RH  069%=      5-min Rain = 0
KVP1 141209Z 22010KT 04/M01 A3017 RMK A01 T00421009  RH  069%=      5-min Rain = 0
KVP1 141210Z 22009KT 04/M01 A3017 RMK A01 T00421009  RH  069%=      5-min Rain = 0
KVP1 141211Z 23010KT 04/M01 A3017 RMK A01 T00431009  RH  069%=      5-min Rain = 0
KVP1 141212Z 23010KT 04/M01 A3018 RMK A01 T00431009  RH  069%=      5-min Rain = 0
KVP1 141213Z 23010KT 04/M01 A3018 RMK A01 T00431009  RH  069%=      5-min Rain = 0
KVP1 141214Z 23009KT 04/M01 A3018 RMK A01 T00431009  RH  069%=      5-min Rain = 0
KVP1 141215Z 23010KT 04/M01 A3018 RMK A01 T00431009  RH  069%=      5-min Rain = 0
KVP1 141216Z 23010KT 04/M01 A3017 RMK A01 T00431009  RH  069%=      5-min Rain = 0
KVP1 141217Z 22010KT 04/M01 A3017 RMK A01 T00431009  RH  069%=      5-min Rain = 0
KVP1 141218Z 22010KT 04/M01 A3017 RMK A01 T00431009  RH  069%=      5-min Rain = 0
KVP1 141219Z 22009KT 04/M01 A3017 RMK A01 T00431009  RH  069%=      5-min Rain = 0
KVP1 141220Z 22010KT 04/M01 A3017 RMK A01 T00431009  RH  069%=      5-min Rain = 0
KVP1 141221Z 22009KT 04/M01 A3017 RMK A01 T00431009  RH  069%=      5-min Rain = 0
KVP1 141222Z 22009KT 04/M01 A3017 RMK A01 T00431009  RH  069%=      5-min Rain = 0
KVP1 141223Z 22010KT 04/M01 A3017 RMK A01 T00431009  RH  069%=      5-min Rain = 0
KVP1 141224Z 22010KT 04/M01 A3017 RMK A01 T00431009  RH  069%=      5-min Rain = 0
KVP1 141225Z 22010KT 04/M01 A3017 RMK A01 T00431009  RH  069%=      5-min Rain = 0
KVP1 141226Z 22010KT 04/M01 A3017 RMK A01 T00421010  RH  069%=      5-min Rain = 0
KVP1 141227Z 22011KT 04/M01 A3017 RMK A01 T00421010  RH  069%=      5-min Rain = 0
KVP1 141228Z 22010KT 04/M01 A3017 RMK A01 T00421010  RH  069%=      5-min Rain = 0
KVP1 141229Z 22011KT 04/M01 A3017 RMK A01 T00421009  RH  069%=      5-min Rain = 0
KVP1 141230Z 22011KT 04/M01 A3017 RMK A01 T00421010  RH  069%=      5-min Rain = 0
KVP1 141231Z 23010KT 04/M01 A3017 RMK A01 T00421010  RH  069%=      5-min Rain = 0
KVP1 141232Z 23011KT 04/M01 A3017 RMK A01 T00421010  RH  069%=      5-min Rain = 0
KVP1 141233Z 23011KT 04/M01 A3017 RMK A01 T00421010  RH  069%=      5-min Rain = 0
KVP1 141234Z 22010KT 04/M01 A3017 RMK A01 T00421010  RH  068%=      5-min Rain = 0
KVP1 141235Z 22010KT 04/M01 A3017 RMK A01 T00431010  RH  068%=      5-min Rain = 0
KVP1 141236Z 22010KT 04/M01 A3017 RMK A01 T00431010  RH  068%=      5-min Rain = 0
KVP1 141237Z 22010KT 04/M01 A3017 RMK A01 T00431010  RH  068%=      5-min Rain = 0
KVP1 141238Z 22010KT 04/M01 A3017 RMK A01 T00431010  RH  068%=      5-min Rain = 0
KVP1 141239Z 22010KT 04/M01 A3017 RMK A01 T00421011  RH  068%=      5-min Rain = 0
KVP1 141240Z 22010KT 04/M01 A3017 RMK A01 T00421011  RH  069%=      5-min Rain = 0
KVP1 141241Z 22010KT 04/M01 A3017 RMK A01 T00421011  RH  069%=      5-min Rain = 0
KVP1 141242Z 22011KT 04/M01 A3017 RMK A01 T00411011  RH  069%=      5-min Rain = 0
KVP1 141243Z 21010KT 04/M01 A3017 RMK A01 T00421011  RH  069%=      5-min Rain = 0
KVP1 141244Z 22011KT 04/M01 A3017 RMK A01 T00421011  RH  069%=      5-min Rain = 0
KVP1 141245Z 22011KT 04/M01 A3017 RMK A01 T00411011  RH  069%=      5-min Rain = 0
KVP1 141246Z 22011KT 04/M01 A3017 RMK A01 T00411011  RH  069%=      5-min Rain = 0
KVP1 141247Z 22011KT 04/M01 A3017 RMK A01 T00411011  RH  069%=      5-min Rain = 0
KVP1 141248Z 22012KT 04/M01 A3017 RMK A01 T00421011  RH  069%=      5-min Rain = 0
KVP1 141249Z 22011KT 04/M01 A3018 RMK A01 T00421011  RH  068%=      5-min Rain = 0
KVP1 141250Z 22012KT 04/M01 A3018 RMK A01 T00431011  RH  068%=      5-min Rain = 0
KVP1 141251Z 22011KT 04/M01 A3018 RMK A01 T00431011  RH  068%=      5-min Rain = 0
KVP1 141252Z 22012KT 04/M01 A3018 RMK A01 T00431011  RH  068%=      5-min Rain = 0
KVP1 141253Z 22012KT 04/M01 A3018 RMK A01 T00431011  RH  068%=      5-min Rain = 0
KVP1 141254Z 22010KT 04/M01 A3018 RMK A01 T00421011  RH  068%=      5-min Rain = 0
KVP1 141255Z 22012KT 04/M01 A3018 RMK A01 T00421012  RH  068%=      5-min Rain = 0
KVP1 141256Z 22012KT 04/M01 A3018 RMK A01 T00411012  RH  068%=      5-min Rain = 0
KVP1 141257Z 21010KT 04/M01 A3018 RMK A01 T00401012  RH  069%=      5-min Rain = 0
KVP1 141258Z 21010KT 04/M01 A3018 RMK A01 T00401012  RH  069%=      5-min Rain = 0
KVP1 141259Z 21010KT 04/M01 A3018 RMK A01 T00391013  RH  069%=      5-min Rain = 0
KVP1 141300Z 21010KT 04/M01 A3018 RMK A01 T00391013  RH  069%=      5-min Rain = 0
KVP1 141301Z 21010KT 04/M01 A3018 RMK A01 T00391013  RH  069%=      5-min Rain = 0
KVP1 141302Z 21010KT 04/M01 A3018 RMK A01 T00381014  RH  069%=      5-min Rain = 0
KVP1 141303Z 21010KT 04/M01 A3017 RMK A01 T00381013  RH  069%=      5-min Rain = 0
KVP1 141304Z 21010KT 04/M01 A3017 RMK A01 T00371014  RH  070%=      5-min Rain = 0
KVP1 141305Z 21010KT 04/M01 A3017 RMK A01 T00371013  RH  070%=      5-min Rain = 0
KVP1 141306Z 21009KT 04/M01 A3017 RMK A01 T00371013  RH  070%=      5-min Rain = 0
KVP1 141307Z 21009KT 04/M01 A3017 RMK A01 T00381013  RH  069%=      5-min Rain = 0
KVP1 141308Z 21009KT 04/M01 A3017 RMK A01 T00371013  RH  070%=      5-min Rain = 0
KVP1 141309Z 21010KT 04/M01 A3017 RMK A01 T00371014  RH  070%=      5-min Rain = 0
KVP1 141310Z 21010KT 04/M01 A3017 RMK A01 T00361014  RH  070%=      5-min Rain = 0
KVP1 141311Z 21010KT 04/M02 A3017 RMK A01 T00351015  RH  070%=      5-min Rain = 0
KVP1 141312Z 21010KT 03/M02 A3017 RMK A01 T00341015  RH  070%=      5-min Rain = 0
KVP1 141313Z 21010KT 03/M02 A3017 RMK A01 T00341015  RH  071%=      5-min Rain = 0
KVP1 141314Z 21010KT 03/M02 A3017 RMK A01 T00331015  RH  071%=      5-min Rain = 0
KVP1 141315Z 21010KT 03/M02 A3017 RMK A01 T00321015  RH  071%=      5-min Rain = 0
KVP1 141316Z 21009KT 03/M02 A3017 RMK A01 T00311016  RH  071%=      5-min Rain = 0
KVP1 141317Z 21009KT 03/M02 A3017 RMK A01 T00301016  RH  072%=      5-min Rain = 0
KVP1 141318Z 21009KT 03/M02 A3017 RMK A01 T00291016  RH  072%=      5-min Rain = 0
KVP1 141319Z 21009KT 03/M02 A3017 RMK A01 T00281016  RH  072%=      5-min Rain = 0
KVP1 141320Z 21009KT 03/M02 A3017 RMK A01 T00281016  RH  073%=      5-min Rain = 0
KVP1 141321Z 21009KT 03/M02 A3017 RMK A01 T00271017  RH  073%=      5-min Rain = 0
KVP1 141322Z 21009KT 03/M02 A3017 RMK A01 T00261017  RH  073%=      5-min Rain = 0
KVP1 141323Z 21010KT 03/M02 A3017 RMK A01 T00251018  RH  073%=      5-min Rain = 0
KVP1 141324Z 21009KT 03/M02 A3017 RMK A01 T00261017  RH  073%=      5-min Rain = 0
KVP1 141325Z 21010KT 03/M02 A3017 RMK A01 T00251018  RH  073%=      5-min Rain = 0
KVP1 141326Z 21010KT 03/M02 A3017 RMK A01 T00251018  RH  074%=      5-min Rain = 0
KVP1 141327Z 22010KT 02/M02 A3017 RMK A01 T00241018  RH  074%=      5-min Rain = 0
KVP1 141328Z 21010KT 02/M02 A3017 RMK A01 T00241018  RH  074%=      5-min Rain = 0
KVP1 141329Z 21010KT 02/M02 A3017 RMK A01 T00241017  RH  074%=      5-min Rain = 0
KVP1 141330Z 21010KT 02/M02 A3017 RMK A01 T00241017  RH  074%=      5-min Rain = 0
KVP1 141331Z 20010KT 02/M02 A3017 RMK A01 T00241018  RH  074%=      5-min Rain = 0
KVP1 141332Z 20010KT 02/M02 A3017 RMK A01 T00241018  RH  074%=      5-min Rain = 0
KVP1 141333Z 20011KT 02/M02 A3017 RMK A01 T00231018  RH  074%=      5-min Rain = 0
KVP1 141334Z 20010KT 02/M02 A3017 RMK A01 T00221019  RH  074%=      5-min Rain = 0
KVP1 141335Z 20010KT 02/M02 A3017 RMK A01 T00221019  RH  074%=      5-min Rain = 0
KVP1 141336Z 20011KT 02/M02 A3017 RMK A01 T00221019  RH  075%=      5-min Rain = 0
KVP1 141337Z 20010KT 02/M02 A3017 RMK A01 T00221019  RH  075%=      5-min Rain = 0
KVP1 141338Z 21010KT 02/M02 A3017 RMK A01 T00211019  RH  075%=      5-min Rain = 0
KVP1 141339Z 21010KT 02/M02 A3017 RMK A01 T00211019  RH  075%=      5-min Rain = 0
KVP1 141340Z 21010KT 02/M02 A3017 RMK A01 T00211019  RH  075%=      5-min Rain = 0
KVP1 141341Z 21010KT 02/M02 A3017 RMK A01 T00221019  RH  075%=      5-min Rain = 0
KVP1 141342Z 21010KT 02/M02 A3017 RMK A01 T00221018  RH  075%=      5-min Rain = 0
KVP1 141343Z 21010KT 02/M02 A3017 RMK A01 T00231018  RH  074%=      5-min Rain = 0
KVP1 141344Z 20010KT 02/M02 A3017 RMK A01 T00231018  RH  074%=      5-min Rain = 0
KVP1 141345Z 21010KT 02/M02 A3017 RMK A01 T00231018  RH  074%=      5-min Rain = 0
KVP1 141346Z 21010KT 02/M02 A3017 RMK A01 T00231018  RH  074%=      5-min Rain = 0
KVP1 141347Z 20010KT 02/M02 A3017 RMK A01 T00231018  RH  074%=      5-min Rain = 0
KVP1 141348Z 21010KT 02/M02 A3017 RMK A01 T00241018  RH  074%=      5-min Rain = 0
KVP1 141349Z 21010KT 02/M02 A3017 RMK A01 T00241018  RH  074%=      5-min Rain = 0
KVP1 141350Z 20010KT 02/M02 A3017 RMK A01 T00241018  RH  074%=      5-min Rain = 0
KVP1 141351Z 20010KT 03/M02 A3017 RMK A01 T00251017  RH  074%=      5-min Rain = 0
KVP1 141352Z 21009KT 03/M02 A3017 RMK A01 T00261017  RH  073%=      5-min Rain = 0
KVP1 141353Z 20010KT 03/M02 A3017 RMK A01 T00261017  RH  073%=      5-min Rain = 0
KVP1 141354Z 21009KT 03/M02 A3017 RMK A01 T00261017  RH  073%=      5-min Rain = 0
KVP1 141355Z 21009KT 03/M02 A3017 RMK A01 T00271017  RH  073%=      5-min Rain = 0
KVP1 141356Z 21010KT 03/M02 A3017 RMK A01 T00281016  RH  073%=      5-min Rain = 0
KVP1 141357Z 21009KT 03/M02 A3017 RMK A01 T00291016  RH  072%=      5-min Rain = 0
KVP1 141358Z 21010KT 03/M02 A3017 RMK A01 T00301016  RH  072%=      5-min Rain = 0
KVP1 141359Z 21010KT 03/M02 A3017 RMK A01 T00301015  RH  072%=      5-min Rain = 0
KVP1 141400Z 21010KT 03/M02 A3017 RMK A01 T00311015  RH  072%=      5-min Rain = 0
KVP1 141401Z 21010KT 03/M02 A3017 RMK A01 T00321015  RH  071%=      5-min Rain = 0
KVP1 141402Z 22009KT 03/M02 A3017 RMK A01 T00331015  RH  071%=      5-min Rain = 0
KVP1 141403Z 22009KT 03/M02 A3017 RMK A01 T00331015  RH  071%=      5-min Rain = 0
KVP1 141404Z 22009KT 03/M02 A3017 RMK A01 T00341015  RH  070%=      5-min Rain = 0
KVP1 141405Z 22010KT 04/M01 A3017 RMK A01 T00351014  RH  070%=      5-min Rain = 0
KVP1 141406Z 22010KT 04/M01 A3017 RMK A01 T00361014  RH  070%=      5-min Rain = 0
KVP1 141407Z 22010KT 04/M01 A3017 RMK A01 T00371014  RH  069%=      5-min Rain = 0
KVP1 141408Z 22010KT 04/M01 A3017 RMK A01 T00371014  RH  069%=      5-min Rain = 0
KVP1 141409Z 22011KT 04/M01 A3017 RMK A01 T00381014  RH  069%=      5-min Rain = 0
KVP1 141410Z 22010KT 04/M01 A3017 RMK A01 T00391014  RH  069%=      5-min Rain = 0
KVP1 141411Z 22010KT 04/M01 A3017 RMK A01 T00401014  RH  068%=      5-min Rain = 0
KVP1 141412Z 22010KT 04/M01 A3017 RMK A01 T00401014  RH  068%=      5-min Rain = 0
KVP1 141413Z 22011KT 04/M01 A3017 RMK A01 T00411014  RH  068%=      5-min Rain = 0
KVP1 141414Z 22010KT 04/M01 A3017 RMK A01 T00411014  RH  067%=      5-min Rain = 0
KVP1 141415Z 22009KT 04/M01 A3017 RMK A01 T00411014  RH  067%=      5-min Rain = 0
KVP1 141416Z 22010KT 04/M01 A3017 RMK A01 T00411014  RH  067%=      5-min Rain = 0
KVP1 141417Z 22010KT 04/M02 A3017 RMK A01 T00421015  RH  067%=      5-min Rain = 0
KVP1 141418Z 22009KT 04/M02 A3017 RMK A01 T00421015  RH  067%=      5-min Rain = 0
KVP1 141419Z 22009KT 04/M02 A3017 RMK A01 T00421015  RH  067%=      5-min Rain = 0
KVP1 141420Z 22010KT 04/M02 A3017 RMK A01 T00421015  RH  067%=      5-min Rain = 0
KVP1 141421Z 22009KT 04/M02 A3017 RMK A01 T00421015  RH  066%=      5-min Rain = 0
KVP1 141422Z 22010KT 04/M01 A3017 RMK A01 T00431014  RH  066%=      5-min Rain = 0
KVP1 141423Z 21010KT 04/M02 A3017 RMK A01 T00431015  RH  066%=      5-min Rain = 0
KVP1 141424Z 21011KT 04/M02 A3017 RMK A01 T00431015  RH  066%=      5-min Rain = 0
KVP1 141425Z 21011KT 04/M02 A3017 RMK A01 T00441015  RH  066%=      5-min Rain = 0
KVP1 141426Z 21011KT 05/M01 A3017 RMK A01 T00451014  RH  065%=      5-min Rain = 0
KVP1 141427Z 21011KT 05/M02 A3017 RMK A01 T00451015  RH  065%=      5-min Rain = 0
KVP1 141428Z 20011KT 05/M01 A3017 RMK A01 T00461014  RH  065%=      5-min Rain = 0
KVP1 141429Z 20009KT 05/M02 A3017 RMK A01 T00461015  RH  065%=      5-min Rain = 0
KVP1 141430Z 21010KT 05/M02 A3017 RMK A01 T00461015  RH  065%=      5-min Rain = 0
KVP1 141431Z 21009KT 05/M01 A3017 RMK A01 T00471014  RH  064%=      5-min Rain = 0
KVP1 141432Z 21009KT 05/M01 A3017 RMK A01 T00481014  RH  064%=      5-min Rain = 0
KVP1 141433Z 21012KT 05/M01 A3017 RMK A01 T00491014  RH  064%=      5-min Rain = 0
KVP1 141434Z 21010KT 05/M01 A3017 RMK A01 T00511014  RH  063%=      5-min Rain = 0
KVP1 141435Z 22011KT 05/M01 A3017 RMK A01 T00521013  RH  063%=      5-min Rain = 0
KVP1 141436Z 21011KT 05/M01 A3017 RMK A01 T00531014  RH  062%=      5-min Rain = 0
KVP1 141437Z 21011KT 05/M01 A3017 RMK A01 T00541014  RH  062%=      5-min Rain = 0
KVP1 141438Z 21010KT 05/M01 A3017 RMK A01 T00541014  RH  061%=      5-min Rain = 0
KVP1 141439Z 21012KT 06/M01 A3017 RMK A01 T00551014  RH  061%=      5-min Rain = 0
KVP1 141440Z 21010KT 06/M02 A3017 RMK A01 T00551015  RH  061%=      5-min Rain = 0
KVP1 141441Z 22010KT 06/M01 A3017 RMK A01 T00551014  RH  061%=      5-min Rain = 0
KVP1 141442Z 22011KT 06/M02 A3017 RMK A01 T00551015  RH  061%=      5-min Rain = 0
KVP1 141443Z 21011KT 06/M02 A3017 RMK A01 T00551015  RH  061%=      5-min Rain = 0
KVP1 141444Z 22010KT 06/M02 A3017 RMK A01 T00551015  RH  061%=      5-min Rain = 0
KVP1 141445Z 22008KT 06/M02 A3017 RMK A01 T00551015  RH  061%=      5-min Rain = 0
KVP1 141446Z 22009KT 06/M01 A3017 RMK A01 T00561014  RH  061%=      5-min Rain = 0
KVP1 141447Z 22010KT 06/M01 A3017 RMK A01 T00571014  RH  060%=      5-min Rain = 0
KVP1 141448Z 22008KT 06/M01 A3017 RMK A01 T00581014  RH  060%=      5-min Rain = 0
KVP1 141449Z 22009KT 06/M01 A3017 RMK A01 T00581014  RH  060%=      5-min Rain = 0
KVP1 141450Z 22011KT 06/M01 A3017 RMK A01 T00591014  RH  059%=      5-min Rain = 0
KVP1 141451Z 21010KT 06/M01 A3017 RMK A01 T00601014  RH  059%=      5-min Rain = 0
KVP1 141452Z 21009KT 06/M01 A3017 RMK A01 T00611014  RH  059%=      5-min Rain = 0
KVP1 141453Z 21010KT 06/M01 A3017 RMK A01 T00631012  RH  058%=      5-min Rain = 0
KVP1 141454Z 22011KT 06/M01 A3017 RMK A01 T00641013  RH  058%=      5-min Rain = 0
KVP1 141455Z 22011KT 07/M01 A3017 RMK A01 T00651013  RH  057%=      5-min Rain = 0
KVP1 141456Z 22010KT 07/M01 A3017 RMK A01 T00661013  RH  057%=      5-min Rain = 0
KVP1 141457Z 22010KT 07/M01 A3018 RMK A01 T00661013  RH  057%=      5-min Rain = 0
KVP1 141458Z 23011KT 07/M01 A3018 RMK A01 T00661013  RH  057%=      5-min Rain = 0
KVP1 141459Z 23009KT 07/M01 A3018 RMK A01 T00671013  RH  057%=      5-min Rain = 0
KVP1 141500Z 23010KT 07/M01 A3018 RMK A01 T00681012  RH  057%=      5-min Rain = 0
KVP1 141501Z 23011KT 07/M01 A3017 RMK A01 T00691013  RH  056%=      5-min Rain = 0
KVP1 141502Z 23009KT 07/M01 A3017 RMK A01 T00691014  RH  056%=      5-min Rain = 0
KVP1 141503Z 23008KT 07/M01 A3017 RMK A01 T00681014  RH  056%=      5-min Rain = 0
KVP1 141504Z 23009KT 07/M01 A3018 RMK A01 T00691013  RH  056%=      5-min Rain = 0
KVP1 141505Z 22009KT 07/M01 A3018 RMK A01 T00691014  RH  055%=      5-min Rain = 0
KVP1 141506Z 22010KT 07/M01 A3018 RMK A01 T00691014  RH  055%=      5-min Rain = 0
KVP1 141507Z 21011KT 07/M01 A3018 RMK A01 T00691014  RH  055%=      5-min Rain = 0
KVP1 141508Z 21009KT 07/M01 A3018 RMK A01 T00691014  RH  055%=      5-min Rain = 0
KVP1 141509Z 21009KT 07/M01 A3018 RMK A01 T00701014  RH  055%=      5-min Rain = 0
KVP1 141510Z 22009KT 07/M01 A3018 RMK A01 T00711013  RH  055%=      5-min Rain = 0
KVP1 141511Z 22008KT 07/M01 A3018 RMK A01 T00711013  RH  055%=      5-min Rain = 0
KVP1 141512Z 22008KT 07/M01 A3018 RMK A01 T00711014  RH  055%=      5-min Rain = 0
KVP1 141513Z 23007KT 07/M01 A3018 RMK A01 T00711013  RH  055%=      5-min Rain = 0
KVP1 141514Z 22008KT 07/M01 A3018 RMK A01 T00721013  RH  055%=      5-min Rain = 0
KVP1 141515Z 22010KT 07/M01 A3018 RMK A01 T00731013  RH  054%=      5-min Rain = 0
KVP1 141516Z 22011KT 07/M01 A3018 RMK A01 T00731013  RH  054%=      5-min Rain = 0
KVP1 141517Z 22010KT 07/M01 A3018 RMK A01 T00731014  RH  054%=      5-min Rain = 0
KVP1 141518Z 22009KT 07/M01 A3018 RMK A01 T00741013  RH  054%=      5-min Rain = 0
KVP1 141519Z 22012KT 08/M01 A3018 RMK A01 T00751013  RH  054%=      5-min Rain = 0
KVP1 141520Z 22009KT 08/M01 A3018 RMK A01 T00761013  RH  053%=      5-min Rain = 0
KVP1 141521Z 22011KT 08/M01 A3018 RMK A01 T00761013  RH  053%=      5-min Rain = 0
KVP1 141522Z 23009KT 08/M01 A3018 RMK A01 T00761014  RH  053%=      5-min Rain = 0
KVP1 141523Z 23007KT 08/M01 A3018 RMK A01 T00771012  RH  054%=      5-min Rain = 0
KVP1 141524Z 23009KT 08/M01 A3018 RMK A01 T00791011  RH  053%=      5-min Rain = 0
KVP1 141525Z 23009KT 08/M01 A3018 RMK A01 T00801012  RH  052%=      5-min Rain = 0
KVP1 141526Z 24011KT 08/M01 A3018 RMK A01 T00811012  RH  052%=      5-min Rain = 0
KVP1 141527Z 24010KT 08/M01 A3018 RMK A01 T00821013  RH  051%=      5-min Rain = 0
KVP1 141528Z 24010KT 08/M01 A3018 RMK A01 T00831012  RH  051%=      5-min Rain = 0
KVP1 141529Z 24009KT 08/M01 A3018 RMK A01 T00831012  RH  051%=      5-min Rain = 0
KVP1 141530Z 24008KT 08/M01 A3018 RMK A01 T00841011  RH  051%=      5-min Rain = 0
KVP1 141531Z 24011KT 09/M01 A3018 RMK A01 T00851012  RH  050%=      5-min Rain = 0
KVP1 141532Z 24009KT 09/M01 A3018 RMK A01 T00851013  RH  050%=      5-min Rain = 0
KVP1 141533Z 24009KT 08/M01 A3018 RMK A01 T00841012  RH  051%=      5-min Rain = 0
KVP1 141534Z 24007KT 09/M01 A3018 RMK A01 T00851011  RH  051%=      5-min Rain = 0
KVP1 141535Z 24007KT 09/M01 A3018 RMK A01 T00861011  RH  051%=      5-min Rain = 0
KVP1 141536Z 24009KT 09/M01 A3018 RMK A01 T00881011  RH  050%=      5-min Rain = 0
KVP1 141537Z 24011KT 09/M01 A3018 RMK A01 T00891013  RH  049%=      5-min Rain = 0
KVP1 141538Z 24009KT 09/M01 A3018 RMK A01 T00891013  RH  049%=      5-min Rain = 0
KVP1 141539Z 23009KT 09/M01 A3018 RMK A01 T00891012  RH  049%=      5-min Rain = 0
KVP1 141540Z 23010KT 09/M01 A3018 RMK A01 T00901012  RH  049%=      5-min Rain = 0
KVP1 141541Z 24009KT 09/M01 A3018 RMK A01 T00911013  RH  048%=      5-min Rain = 0
KVP1 141542Z 24010KT 09/M01 A3018 RMK A01 T00911013  RH  048%=      5-min Rain = 0
KVP1 141543Z 24011KT 09/M01 A3019 RMK A01 T00911012  RH  048%=      5-min Rain = 0
KVP1 141544Z 23012KT 09/M01 A3019 RMK A01 T00921013  RH  048%=      5-min Rain = 0
KVP1 141545Z 23011KT 09/M01 A3019 RMK A01 T00911014  RH  048%=      5-min Rain = 0
KVP1 141546Z 23010KT 09/M01 A3019 RMK A01 T00911014  RH  048%=      5-min Rain = 0
KVP1 141547Z 22012KT 09/M01 A3019 RMK A01 T00931013  RH  048%=      5-min Rain = 0
KVP1 141548Z 21012KT 09/M01 A3019 RMK A01 T00931013  RH  047%=      5-min Rain = 0
KVP1 141549Z 21010KT 09/M01 A3019 RMK A01 T00941012  RH  047%=      5-min Rain = 0
KVP1 141550Z 21012KT 10/M01 A3019 RMK A01 T00971011  RH  047%=      5-min Rain = 0
KVP1 141551Z 21012KT 10/M01 A3019 RMK A01 T00971011  RH  047%=      5-min Rain = 0
KVP1 141552Z 21011KT 10/M01 A3019 RMK A01 T00991011  RH  046%=      5-min Rain = 0
KVP1 141553Z 21012KT 10/M01 A3019 RMK A01 T01001011  RH  046%=      5-min Rain = 0
KVP1 141554Z 21011KT 10/M01 A3019 RMK A01 T01001012  RH  046%=      5-min Rain = 0
KVP1 141555Z 21010KT 10/M01 A3019 RMK A01 T01021011  RH  046%=      5-min Rain = 0
KVP1 141556Z 21011KT 10/M01 A3019 RMK A01 T01041009  RH  045%=      5-min Rain = 0
KVP1 141557Z 21012KT 11/M01 A3019 RMK A01 T01051011  RH  044%=      5-min Rain = 0
KVP1 141558Z 20013KT 11/M01 A3019 RMK A01 T01051011  RH  044%=      5-min Rain = 0
KVP1 141559Z 21013KT 11/M01 A3019 RMK A01 T01051012  RH  044%=      5-min Rain = 0
KVP1 141600Z 21012KT 11/M01 A3019 RMK A01 T01061012  RH  044%=      5-min Rain = 0
KVP1 141601Z 21012KT 11/M01 A3019 RMK A01 T01071012  RH  043%=      5-min Rain = 0
KVP1 141602Z 21014KT 11/M01 A3019 RMK A01 T01081013  RH  043%=      5-min Rain = 0
KVP1 141603Z 21012KT 11/M01 A3019 RMK A01 T01091013  RH  043%=      5-min Rain = 0
KVP1 141604Z 21011KT 11/M01 A3019 RMK A01 T01111010  RH  043%=      5-min Rain = 0
KVP1 141605Z 21009KT 11/M01 A3019 RMK A01 T01131010  RH  043%=      5-min Rain = 0
KVP1 141606Z 21011KT 12/M01 A3019 RMK A01 T01151011  RH  042%=      5-min Rain = 0
KVP1 141607Z 22009KT 12/M01 A3019 RMK A01 T01171011  RH  041%=      5-min Rain = 0
KVP1 141608Z 21011KT 12/M01 A3019 RMK A01 T01201010  RH  041%=      5-min Rain = 0
KVP1 141609Z 22013KT 12/M01 A3019 RMK A01 T01201011  RH  040%=      5-min Rain = 0
KVP1 141610Z 22013KT 12/M01 A3019 RMK A01 T01211011  RH  040%=      5-min Rain = 0
KVP1 141611Z 22012KT 12/M01 A3018 RMK A01 T01221013  RH  039%=      5-min Rain = 0
KVP1 141612Z 22012KT 12/M02 A3018 RMK A01 T01211015  RH  039%=      5-min Rain = 0
KVP1 141613Z 21011KT 12/M01 A3018 RMK A01 T01211014  RH  039%=      5-min Rain = 0
KVP1 141614Z 21012KT 12/M01 A3018 RMK A01 T01231012  RH  039%=      5-min Rain = 0
KVP1 141615Z 21011KT 12/M01 A3018 RMK A01 T01231012  RH  039%=      5-min Rain = 0
KVP1 141616Z 21010KT 12/M01 A3018 RMK A01 T01231011  RH  039%=      5-min Rain = 0
KVP1 141617Z 21009KT 13/M01 A3018 RMK A01 T01251010  RH  039%=      5-min Rain = 0
KVP1 141618Z 20009KT 13/M01 A3018 RMK A01 T01281010  RH  039%=      5-min Rain = 0
KVP1 141619Z 20010KT 13/M01 A3018 RMK A01 T01301010  RH  038%=      5-min Rain = 0
KVP1 141620Z 21011KT 13/M01 A3018 RMK A01 T01291011  RH  038%=      5-min Rain = 0
KVP1 141621Z 20012KT 13/M01 A3018 RMK A01 T01281010  RH  038%=      5-min Rain = 0
KVP1 141622Z 20014KT 13/M01 A3018 RMK A01 T01281012  RH  038%=      5-min Rain = 0
KVP1 141623Z 20013KT 13/M01 A3018 RMK A01 T01271014  RH  038%=      5-min Rain = 0
KVP1 141624Z 20012KT 13/M01 A3018 RMK A01 T01271013  RH  038%=      5-min Rain = 0
KVP1 141625Z 21010KT 13/M01 A3018 RMK A01 T01301012  RH  038%=      5-min Rain = 0
KVP1 141626Z 21012KT 13/M01 A3018 RMK A01 T01311012  RH  037%=      5-min Rain = 0
KVP1 141627Z 21013KT 13/M01 A3018 RMK A01 T01321014  RH  036%=      5-min Rain = 0
KVP1 141628Z 22015KT 13/M02 A3018 RMK A01 T01331015  RH  036%=      5-min Rain = 0
KVP1 141629Z 21012KT 14/M02 A3018 RMK A01 T01351015  RH  036%=      5-min Rain = 0
KVP1 141630Z 20014KT 14/M01 A3018 RMK A01 T01371013  RH  035%=      5-min Rain = 0
KVP1 141631Z 21015KT 14/M02 A3018 RMK A01 T01381015  RH  035%=      5-min Rain = 0
KVP1 141632Z 21014KT 14/M02 A3018 RMK A01 T01381015  RH  035%=      5-min Rain = 0
KVP1 141633Z 21012KT 14/M01 A3018 RMK A01 T01381014  RH  035%=      5-min Rain = 0
KVP1 141634Z 21013KT 14/M02 A3018 RMK A01 T01391015  RH  035%=      5-min Rain = 0
KVP1 141635Z 21011KT 14/M02 A3018 RMK A01 T01381016  RH  035%=      5-min Rain = 0
KVP1 141636Z 21011KT 14/M01 A3018 RMK A01 T01401014  RH  034%=      5-min Rain = 0
KVP1 141637Z 21010KT 14/M02 A3018 RMK A01 T01441015  RH  033%=      5-min Rain = 0
KVP1 141638Z 20012KT 15/M02 A3018 RMK A01 T01451016  RH  033%=      5-min Rain = 0
KVP1 141639Z 20011KT 15/M02 A3018 RMK A01 T01451016  RH  033%=      5-min Rain = 0
KVP1 141640Z 20012KT 15/M02 A3018 RMK A01 T01461016  RH  033%=      5-min Rain = 0
KVP1 141641Z 21012KT 15/M02 A3018 RMK A01 T01471016  RH  033%=      5-min Rain = 0
KVP1 141642Z 22012KT 15/M02 A3018 RMK A01 T01471016  RH  032%=      5-min Rain = 0
KVP1 141643Z 21013KT 15/M02 A3018 RMK A01 T01471017  RH  032%=      5-min Rain = 0
KVP1 141644Z 21013KT 15/M02 A3018 RMK A01 T01471019  RH  032%=      5-min Rain = 0
KVP1 141645Z 22011KT 15/M02 A3018 RMK A01 T01471019  RH  032%=      5-min Rain = 0
KVP1 141646Z 21011KT 15/M02 A3018 RMK A01 T01491018  RH  032%=      5-min Rain = 0
KVP1 141647Z 22010KT 15/M02 A3018 RMK A01 T01511016  RH  032%=      5-min Rain = 0
KVP1 141648Z 22011KT 15/M02 A3018 RMK A01 T01531016  RH  031%=      5-min Rain = 0
KVP1 141649Z 22010KT 15/M02 A3018 RMK A01 T01541016  RH  031%=      5-min Rain = 0
KVP1 141650Z 22012KT 16/M02 A3018 RMK A01 T01551017  RH  031%=      5-min Rain = 0
KVP1 141651Z 22013KT 16/M02 A3018 RMK A01 T01561019  RH  030%=      5-min Rain = 0
KVP1 141652Z 22013KT 16/M02 A3018 RMK A01 T01561020  RH  030%=      5-min Rain = 0
KVP1 141653Z 22014KT 16/M02 A3018 RMK A01 T01561022  RH  029%=      5-min Rain = 0
KVP1 141654Z 22014KT 16/M02 A3018 RMK A01 T01551023  RH  029%=      5-min Rain = 0
KVP1 141655Z 22011KT 15/M02 A3018 RMK A01 T01541022  RH  030%=      5-min Rain = 0
KVP1 141656Z 22011KT 16/M02 A3018 RMK A01 T01561020  RH  030%=      5-min Rain = 0
KVP1 141657Z 21011KT 16/M02 A3018 RMK A01 T01581021  RH  029%=      5-min Rain = 0
KVP1 141658Z 22010KT 16/M02 A3018 RMK A01 T01581020  RH  029%=      5-min Rain = 0
KVP1 141659Z 22011KT 16/M02 A3018 RMK A01 T01591020  RH  029%=      5-min Rain = 0
KVP1 141700Z 22012KT 16/M02 A3018 RMK A01 T01621022  RH  028%=      5-min Rain = 0
KVP1 141701Z 22011KT 16/M02 A3018 RMK A01 T01621022  RH  028%=      5-min Rain = 0
KVP1 141702Z 22011KT 16/M02 A3018 RMK A01 T01631021  RH  028%=      5-min Rain = 0
KVP1 141703Z 22011KT 16/M02 A3018 RMK A01 T01641021  RH  028%=      5-min Rain = 0
KVP1 141704Z 23011KT 17/M02 A3018 RMK A01 T01681020  RH  028%=      5-min Rain = 0
KVP1 141705Z 23013KT 17/M02 A3018 RMK A01 T01711022  RH  027%=      5-min Rain = 0
KVP1 141706Z 22012KT 17/M02 A3018 RMK A01 T01721023  RH  026%=      5-min Rain = 0
KVP1 141707Z 23010KT 17/M02 A3017 RMK A01 T01721023  RH  026%=      5-min Rain = 0
KVP1 141708Z 22011KT 17/M02 A3017 RMK A01 T01731023  RH  026%=      5-min Rain = 0
KVP1 141709Z 24011KT 17/M02 A3017 RMK A01 T01731024  RH  026%=      5-min Rain = 0
KVP1 141710Z 23012KT 18/M02 A3017 RMK A01 T01751024  RH  026%=      5-min Rain = 0
KVP1 141711Z 22011KT 18/M03 A3017 RMK A01 T01761025  RH  025%=      5-min Rain = 0
KVP1 141712Z 22012KT 18/M03 A3018 RMK A01 T01761025  RH  025%=      5-min Rain = 0
KVP1 141713Z 22014G19KT 18/M03 A3017 RMK A01 T01781026  RH  025%=      5-min Rain = 0
KVP1 141714Z 23015KT 18/M03 A3017 RMK A01 T01801029  RH  024%=      5-min Rain = 0
KVP1 141715Z 23016KT 18/M03 A3018 RMK A01 T01811031  RH  024%=      5-min Rain = 0
KVP1 141716Z 23012KT 18/M03 A3018 RMK A01 T01821028  RH  024%=      5-min Rain = 0
KVP1 141717Z 22017KT 19/M03 A3018 RMK A01 T01851029  RH  023%=      5-min Rain = 0
KVP1 141718Z 22014KT 19/M03 A3018 RMK A01 T01851031  RH  023%=      5-min Rain = 0
KVP1 141719Z 22013G18KT 19/M03 A3018 RMK A01 T01861030  RH  023%=      5-min Rain = 0
KVP1 141720Z 22014KT 19/M03 A3018 RMK A01 T01881030  RH  023%=      5-min Rain = 0
KVP1 141721Z 23016KT 19/M03 A3018 RMK A01 T01891032  RH  022%=      5-min Rain = 0
KVP1 141722Z 23015KT 19/M03 A3017 RMK A01 T01871032  RH  022%=      5-min Rain = 0
KVP1 141723Z 23015KT 19/M03 A3017 RMK A01 T01871031  RH  023%=      5-min Rain = 0
KVP1 141724Z 23016KT 19/M03 A3017 RMK A01 T01861033  RH  022%=      5-min Rain = 0
KVP1 141725Z 22014KT 19/M03 A3017 RMK A01 T01871032  RH  022%=      5-min Rain = 0
KVP1 141726Z 22015KT 19/M03 A3017 RMK A01 T01881031  RH  023%=      5-min Rain = 0
KVP1 141727Z 23013KT 19/M03 A3017 RMK A01 T01871031  RH  022%=      5-min Rain = 0
KVP1 141728Z 23012KT 19/M03 A3017 RMK A01 T01871030  RH  023%=      5-min Rain = 0
KVP1 141729Z 23010KT 19/M03 A3017 RMK A01 T01901029  RH  022%=      5-min Rain = 0
KVP1 141730Z 21013KT 19/M03 A3017 RMK A01 T01921031  RH  022%=      5-min Rain = 0
KVP1 141731Z 23013KT 19/M03 A3016 RMK A01 T01941030  RH  022%=      5-min Rain = 0
KVP1 141732Z 23013KT 20/M03 A3016 RMK A01 T01951031  RH  021%=      5-min Rain = 0
KVP1 141733Z 23014KT 20/M03 A3016 RMK A01 T01971031  RH  021%=      5-min Rain = 0
KVP1 141734Z 23012KT 20/M03 A3016 RMK A01 T01971030  RH  021%=      5-min Rain = 0
KVP1 141735Z 22012KT 20/M03 A3016 RMK A01 T02001028  RH  021%=      5-min Rain = 0
KVP1 141736Z 22015KT 20/M03 A3016 RMK A01 T02031030  RH  021%=      5-min Rain = 0
KVP1 141737Z 22014KT 20/M03 A3016 RMK A01 T02031032  RH  020%=      5-min Rain = 0
KVP1 141738Z 23012KT 20/M03 A3016 RMK A01 T02031031  RH  020%=      5-min Rain = 0
KVP1 141739Z 23013KT 21/M03 A3016 RMK A01 T02051030  RH  020%=      5-min Rain = 0
KVP1 141740Z 22015KT 21/M03 A3016 RMK A01 T02061034  RH  020%=      5-min Rain = 0
KVP1 141741Z 22014G19KT 21/M04 A3016 RMK A01 T02061035  RH  019%=      5-min Rain = 0
KVP1 141742Z 22016KT 21/M03 A3016 RMK A01 T02061034  RH  020%=      5-min Rain = 0
KVP1 141743Z 23015KT 21/M03 A3016 RMK A01 T02071034  RH  020%=      5-min Rain = 0
KVP1 141744Z 22015KT 21/M03 A3016 RMK A01 T02071033  RH  020%=      5-min Rain = 0
KVP1 141745Z 23016KT 21/M03 A3016 RMK A01 T02071032  RH  020%=      5-min Rain = 0
KVP1 141746Z 24014KT 21/M03 A3016 RMK A01 T02071032  RH  020%=      5-min Rain = 0
KVP1 141747Z 23014KT 21/M03 A3016 RMK A01 T02091030  RH  020%=      5-min Rain = 0
KVP1 141748Z 22017KT 21/M03 A3015 RMK A01 T02111032  RH  019%=      5-min Rain = 0
KVP1 141749Z 22015KT 21/M03 A3015 RMK A01 T02101034  RH  019%=      5-min Rain = 0
KVP1 141750Z 23015KT 21/M03 A3015 RMK A01 T02101032  RH  019%=      5-min Rain = 0
KVP1 141751Z 22016KT 21/M03 A3015 RMK A01 T02131032  RH  019%=      5-min Rain = 0
KVP1 141752Z 23016KT 21/M03 A3015 RMK A01 T02141034  RH  019%=      5-min Rain = 0
KVP1 141753Z 23014KT 22/M03 A3015 RMK A01 T02151034  RH  019%=      5-min Rain = 0
KVP1 141754Z 23015KT 22/M03 A3015 RMK A01 T02151034  RH  019%=      5-min Rain = 0
KVP1 141755Z 22017KT 22/M03 A3015 RMK A01 T02151033  RH  019%=      5-min Rain = 0
KVP1 141756Z 23017G23KT 22/M03 A3015 RMK A01 T02161033  RH  019%=      5-min Rain = 0
KVP1 141757Z 24018KT 22/M04 A3015 RMK A01 T02171035  RH  018%=      5-min Rain = 0
KVP1 141758Z 24018KT 22/M03 A3015 RMK A01 T02171034  RH  018%=      5-min Rain = 0
KVP1 141759Z 23016KT 22/M03 A3015 RMK A01 T02181032  RH  018%=      5-min Rain = 0
KVP1 141800Z 23017KT 22/M03 A3015 RMK A01 T02191032  RH  018%=      5-min Rain = 0
KVP1 141801Z 22016KT 22/M03 A3015 RMK A01 T02181033  RH  018%=      5-min Rain = 0
KVP1 141802Z 23014KT 22/M03 A3015 RMK A01 T02191032  RH  018%=      5-min Rain = 0
KVP1 141803Z 23014G19KT 22/M03 A3015 RMK A01 T02191033  RH  018%=      5-min Rain = 0
KVP1 141804Z 22014G19KT 22/M03 A3015 RMK A01 T02191033  RH  018%=      5-min Rain = 0
KVP1 141805Z 23015KT 22/M03 A3015 RMK A01 T02221032  RH  018%=      5-min Rain = 0
KVP1 141806Z 23014KT 22/M03 A3014 RMK A01 T02241033  RH  018%=      5-min Rain = 0
KVP1 141807Z 22017KT 23/M03 A3014 RMK A01 T02261034  RH  017%=      5-min Rain = 0
KVP1 141808Z 22016KT 23/M03 A3014 RMK A01 T02251034  RH  017%=      5-min Rain = 0
KVP1 141809Z 23017KT 23/M03 A3014 RMK A01 T02261034  RH  017%=      5-min Rain = 0
KVP1 141810Z 22017KT 23/M03 A3014 RMK A01 T02271032  RH  018%=      5-min Rain = 0
KVP1 141811Z 23014KT 23/M03 A3014 RMK A01 T02271032  RH  017%=      5-min Rain = 0
KVP1 141812Z 24014KT 23/M03 A3014 RMK A01 T02281032  RH  017%=      5-min Rain = 0
KVP1 141813Z 24018G23KT 23/M03 A3014 RMK A01 T02291033  RH  017%=      5-min Rain = 0
KVP1 141814Z 24015G20KT 23/M03 A3014 RMK A01 T02281033  RH  017%=      5-min Rain = 0
KVP1 141815Z 24017KT 23/M03 A3014 RMK A01 T02301032  RH  017%=      5-min Rain = 0
KVP1 141816Z 23017KT 23/M03 A3014 RMK A01 T02301032  RH  017%=      5-min Rain = 0
KVP1 141817Z 24017KT 23/M03 A3014 RMK A01 T02301034  RH  017%=      5-min Rain = 0
KVP1 141818Z 23016KT 23/M03 A3014 RMK A01 T02281034  RH  017%=      5-min Rain = 0
KVP1 141819Z 22017KT 23/M03 A3014 RMK A01 T02291034  RH  017%=      5-min Rain = 0
KVP1 141820Z 22016KT 23/M04 A3014 RMK A01 T02301035  RH  017%=      5-min Rain = 0
KVP1 141821Z 22014KT 23/M04 A3014 RMK A01 T02321035  RH  017%=      5-min Rain = 0
KVP1 141822Z 24017KT 23/M04 A3013 RMK A01 T02331035  RH  017%=      5-min Rain = 0
KVP1 141823Z 24018KT 23/M04 A3013 RMK A01 T02321036  RH  016%=      5-min Rain = 0
KVP1 141824Z 24018KT 23/M04 A3013 RMK A01 T02311038  RH  016%=      5-min Rain = 0
KVP1 141825Z 24018KT 23/M04 A3013 RMK A01 T02301037  RH  017%=      5-min Rain = 0
KVP1 141826Z 24016KT 23/M04 A3013 RMK A01 T02311036  RH  017%=      5-min Rain = 0
KVP1 141827Z 23021KT 23/M04 A3013 RMK A01 T02311038  RH  016%=      5-min Rain = 0
KVP1 141828Z 23018KT 23/M04 A3013 RMK A01 T02291040  RH  016%=      5-min Rain = 0
KVP1 141829Z 22018KT 23/M04 A3013 RMK A01 T02281039  RH  017%=      5-min Rain = 0
KVP1 141830Z 22020KT 23/M04 A3013 RMK A01 T02301036  RH  017%=      5-min Rain = 0
KVP1 141831Z 23018G23KT 23/M04 A3013 RMK A01 T02311038  RH  016%=      5-min Rain = 0
KVP1 141832Z 24019KT 23/M04 A3013 RMK A01 T02301039  RH  016%=      5-min Rain = 0
KVP1 141833Z 24020KT 23/M04 A3013 RMK A01 T02321038  RH  016%=      5-min Rain = 0
KVP1 141834Z 24018KT 23/M04 A3013 RMK A01 T02321040  RH  016%=      5-min Rain = 0
KVP1 141835Z 24019KT 23/M04 A3013 RMK A01 T02311040  RH  016%=      5-min Rain = 0
KVP1 141836Z 23020G26KT 23/M04 A3013 RMK A01 T02301040  RH  016%=      5-min Rain = 0
KVP1 141837Z 24018G23KT 23/M04 A3013 RMK A01 T02331036  RH  016%=      5-min Rain = 0
KVP1 141838Z 23021KT 24/M04 A3013 RMK A01 T02361037  RH  016%=      5-min Rain = 0
KVP1 141839Z 23017KT 24/M04 A3013 RMK A01 T02351037  RH  016%=      5-min Rain = 0
KVP1 141840Z 23014KT 23/M04 A3013 RMK A01 T02341035  RH  016%=      5-min Rain = 0
KVP1 141841Z 24017KT 24/M04 A3013 RMK A01 T02361035  RH  016%=      5-min Rain = 0
KVP1 141842Z 24021KT 24/M04 A3013 RMK A01 T02371037  RH  016%=      5-min Rain = 0
KVP1 141843Z 24019KT 24/M04 A3013 RMK A01 T02351036  RH  016%=      5-min Rain = 0
KVP1 141844Z 24018KT 23/M04 A3013 RMK A01 T02331036  RH  016%=      5-min Rain = 0
KVP1 141845Z 23017KT 23/M04 A3012 RMK A01 T02331035  RH  017%=      5-min Rain = 0
KVP1 141846Z 23017KT 23/M03 A3012 RMK A01 T02331033  RH  017%=      5-min Rain = 0
KVP1 141847Z 23017G22KT 24/M03 A3012 RMK A01 T02361031  RH  017%=      5-min Rain = 0
KVP1 141848Z 22017G24KT 24/M03 A3012 RMK A01 T02391033  RH  016%=      5-min Rain = 0
KVP1 141849Z 22019KT 24/M04 A3012 RMK A01 T02391036  RH  016%=      5-min Rain = 0
KVP1 141850Z 23017KT 24/M04 A3012 RMK A01 T02381036  RH  016%=      5-min Rain = 0
KVP1 141851Z 23019KT 24/M04 A3012 RMK A01 T02371035  RH  016%=      5-min Rain = 0
KVP1 141852Z 22015KT 24/M04 A3012 RMK A01 T02361037  RH  016%=      5-min Rain = 0
KVP1 141853Z 23017G22KT 24/M04 A3012 RMK A01 T02351038  RH  016%=      5-min Rain = 0
KVP1 141854Z 22018KT 24/M04 A3012 RMK A01 T02361038  RH  016%=      5-min Rain = 0
KVP1 141855Z 23019KT 24/M04 A3012 RMK A01 T02361038  RH  016%=      5-min Rain = 0
KVP1 141856Z 23017KT 23/M04 A3012 RMK A01 T02341037  RH  016%=      5-min Rain = 0
KVP1 141857Z 22019KT 23/M04 A3012 RMK A01 T02341037  RH  016%=      5-min Rain = 0
KVP1 141858Z 22018KT 24/M04 A3012 RMK A01 T02371036  RH  016%=      5-min Rain = 0
KVP1 141859Z 21018KT 24/M04 A3012 RMK A01 T02381037  RH  016%=      5-min Rain = 0
KVP1 141900Z 21019G24KT 24/M04 A3012 RMK A01 T02351038  RH  016%=      5-min Rain = 0
KVP1 141901Z 21017KT 23/M04 A3012 RMK A01 T02341035  RH  016%=      5-min Rain = 0
KVP1 141902Z 22016KT 24/M03 A3012 RMK A01 T02351034  RH  016%=      5-min Rain = 0
KVP1 141903Z 23018KT 24/M04 A3011 RMK A01 T02361036  RH  016%=      5-min Rain = 0
KVP1 141904Z 25020KT 24/M04 A3011 RMK A01 T02381040  RH  015%=      5-min Rain = 0
KVP1 141905Z 23018G24KT 24/M04 A3011 RMK A01 T02381038  RH  016%=      5-min Rain = 0
KVP1 141906Z 22016KT 24/M04 A3011 RMK A01 T02391035  RH  016%=      5-min Rain = 0
KVP1 141907Z 22017G22KT 24/M04 A3011 RMK A01 T02381036  RH  016%=      5-min Rain = 0
KVP1 141908Z 24021KT 24/M04 A3011 RMK A01 T02381037  RH  016%=      5-min Rain = 0
KVP1 141909Z 23019KT 24/M04 A3011 RMK A01 T02381038  RH  016%=      5-min Rain = 0
KVP1 141910Z 23017KT 24/M04 A3011 RMK A01 T02381038  RH  016%=      5-min Rain = 0
KVP1 141911Z 22016KT 24/M04 A3011 RMK A01 T02381038  RH  016%=      5-min Rain = 0
KVP1 141912Z 22017G23KT 24/M04 A3011 RMK A01 T02381035  RH  016%=      5-min Rain = 0
KVP1 141913Z 22019G24KT 24/M04 A301 RMK A01 T02381035  RH  016%=      5-min Rain = 0
KVP1 141914Z 23019G24KT 24/M04 A301 RMK A01 T02401035  RH  016%=      5-min Rain = 0
KVP1 141915Z 22018G23KT 24/M04 A301 RMK A01 T02401036  RH  016%=      5-min Rain = 0
KVP1 141916Z 23018KT 24/M04 A301 RMK A01 T02391035  RH  016%=      5-min Rain = 0
KVP1 141917Z 23021KT 24/M03 A301 RMK A01 T02401034  RH  016%=      5-min Rain = 0
KVP1 141918Z 23017KT 24/M03 A301 RMK A01 T02391033  RH  016%=      5-min Rain = 0
KVP1 141919Z 23016KT 24/M03 A301 RMK A01 T02411032  RH  016%=      5-min Rain = 0
KVP1 141920Z 22016KT 24/M03 A301 RMK A01 T02411031  RH  016%=      5-min Rain = 0
KVP1 141921Z 23012KT 24/M03 A301 RMK A01 T02431030  RH  016%=      5-min Rain = 0
KVP1 141922Z 23016KT 25/M03 A301 RMK A01 T02481031  RH  016%=      5-min Rain = 0
KVP1 141923Z 22017G23KT 25/M03 A301 RMK A01 T02481031  RH  015%=      5-min Rain = 0
KVP1 141924Z 21021KT 25/M04 A301 RMK A01 T02471036  RH  015%=      5-min Rain = 0
KVP1 141925Z 22016KT 24/M04 A301 RMK A01 T02431038  RH  015%=      5-min Rain = 0
KVP1 141926Z 23018KT 24/M04 A3009 RMK A01 T02431038  RH  015%=      5-min Rain = 0
KVP1 141927Z 22018KT 25/M04 A3009 RMK A01 T02451037  RH  015%=      5-min Rain = 0
KVP1 141928Z 22021KT 25/M04 A3009 RMK A01 T02481038  RH  015%=      5-min Rain = 0
KVP1 141929Z 22021KT 25/M04 A3009 RMK A01 T02471042  RH  014%=      5-min Rain = 0
KVP1 141930Z 23021KT 25/M04 A3009 RMK A01 T02451040  RH  015%=      5-min Rain = 0
KVP1 141931Z 22018KT 24/M04 A3009 RMK A01 T02441039  RH  015%=      5-min Rain = 0
KVP1 141932Z 23018KT 24/M04 A3009 RMK A01 T02431037  RH  015%=      5-min Rain = 0
KVP1 141933Z 23019KT 25/M03 A3009 RMK A01 T02451034  RH  016%=      5-min Rain = 0
KVP1 141934Z 23019KT 24/M04 A3009 RMK A01 T02441035  RH  015%=      5-min Rain = 0
KVP1 141935Z 24017KT 24/M04 A3009 RMK A01 T02411036  RH  016%=      5-min Rain = 0
KVP1 141936Z 22020G26KT 24/M04 A3009 RMK A01 T02421035  RH  016%=      5-min Rain = 0
KVP1 141937Z 22019KT 25/M04 A3009 RMK A01 T02451035  RH  015%=      5-min Rain = 0
KVP1 141938Z 22018KT 25/M04 A3009 RMK A01 T02461035  RH  015%=      5-min Rain = 0
KVP1 141939Z 23018KT 25/M04 A3009 RMK A01 T02471036  RH  015%=      5-min Rain = 0
KVP1 141940Z 23018KT 25/M03 A3009 RMK A01 T02481034  RH  015%=      5-min Rain = 0
KVP1 141941Z 23016KT 25/M03 A3009 RMK A01 T02481032  RH  015%=      5-min Rain = 0
KVP1 141942Z 23015KT 25/M03 A3009 RMK A01 T02491031  RH  015%=      5-min Rain = 0
KVP1 141943Z 23013KT 25/M03 A3008 RMK A01 T02481032  RH  015%=      5-min Rain = 0
KVP1 141944Z 24014G19KT 25/M03 A3008 RMK A01 T02471033  RH  015%=      5-min Rain = 0
KVP1 141945Z 22018KT 25/M03 A3008 RMK A01 T02471033  RH  015%=      5-min Rain = 0
KVP1 141946Z 23018KT 25/M04 A3008 RMK A01 T02491036  RH  015%=      5-min Rain = 0
KVP1 141947Z 24018KT 25/M04 A3008 RMK A01 T02511036  RH  015%=      5-min Rain = 0
KVP1 141948Z 24019KT 25/M04 A3008 RMK A01 T02511036  RH  015%=      5-min Rain = 0
KVP1 141949Z 23017KT 25/M04 A3008 RMK A01 T02511035  RH  015%=      5-min Rain = 0
KVP1 141950Z 22018G23KT 25/M04 A3008 RMK A01 T02511035  RH  015%=      5-min Rain = 0
KVP1 141951Z 22020KT 25/M04 A3008 RMK A01 T02531038  RH  014%=      5-min Rain = 0
KVP1 141952Z 22018KT 25/M04 A3007 RMK A01 T02491038  RH  015%=      5-min Rain = 0
KVP1 141953Z 22019KT 25/M04 A3008 RMK A01 T02501037  RH  015%=      5-min Rain = 0
KVP1 141954Z 22016KT 25/M04 A3008 RMK A01 T02501037  RH  015%=      5-min Rain = 0
KVP1 141955Z 21018KT 25/M04 A3007 RMK A01 T02501036  RH  015%=      5-min Rain = 0
KVP1 141956Z 22016KT 25/M03 A3008 RMK A01 T02501034  RH  015%=      5-min Rain = 0
KVP1 141957Z 22016KT 25/M03 A3007 RMK A01 T02501034  RH  015%=      5-min Rain = 0
KVP1 141958Z 22019KT 25/M04 A3007 RMK A01 T02531039  RH  014%=      5-min Rain = 0
KVP1 141959Z 23016KT 25/M04 A3007 RMK A01 T02511041  RH  014%=      5-min Rain = 0
KVP1 142000Z 24018KT 25/M04 A3007 RMK A01 T02501044  RH  014%=      5-min Rain = 0
KVP1 142001Z 24018KT 25/M05 A3007 RMK A01 T02521045  RH  014%=      5-min Rain = 0
KVP1 142002Z 23018G24KT 26/M04 A3007 RMK A01 T02561043  RH  014%=      5-min Rain = 0
KVP1 142003Z 23021KT 26/M04 A3007 RMK A01 T02591043  RH  013%=      5-min Rain = 0
KVP1 142004Z 24023KT 26/M04 A3007 RMK A01 T02551043  RH  014%=      5-min Rain = 0
KVP1 142005Z 24019KT 25/M04 A3007 RMK A01 T02531043  RH  014%=      5-min Rain = 0
KVP1 142006Z 24019KT 25/M04 A3007 RMK A01 T02531043  RH  014%=      5-min Rain = 0
KVP1 142007Z 24017KT 25/M04 A3007 RMK A01 T02531041  RH  014%=      5-min Rain = 0
KVP1 142008Z 24018KT 26/M04 A3007 RMK A01 T02551039  RH  014%=      5-min Rain = 0
KVP1 142009Z 25022KT 26/M04 A3006 RMK A01 T02561041  RH  014%=      5-min Rain = 0
KVP1 142010Z 24021KT 25/M04 A3006 RMK A01 T02541042  RH  014%=      5-min Rain = 0
KVP1 142011Z 24023KT 25/M04 A3006 RMK A01 T02531040  RH  014%=      5-min Rain = 0
KVP1 142012Z 24021KT 25/M04 A3006 RMK A01 T02521038  RH  014%=      5-min Rain = 0
KVP1 142013Z 23021KT 25/M04 A3007 RMK A01 T02531037  RH  014%=      5-min Rain = 0
KVP1 142014Z 23017KT 25/M04 A3006 RMK A01 T02531037  RH  014%=      5-min Rain = 0
KVP1 142015Z 22016KT 25/M04 A3006 RMK A01 T02541037  RH  014%=      5-min Rain = 0
KVP1 142016Z 22017KT 26/M03 A3006 RMK A01 T02561034  RH  014%=      5-min Rain = 0
KVP1 142017Z 23020KT 26/M04 A3006 RMK A01 T02581036  RH  014%=      5-min Rain = 0
KVP1 142018Z 24016G22KT 26/M04 A3006 RMK A01 T02561036  RH  014%=      5-min Rain = 0
KVP1 142019Z 23020KT 26/M04 A3006 RMK A01 T02561036  RH  014%=      5-min Rain = 0
KVP1 142020Z 23018KT 26/M04 A3006 RMK A01 T02561036  RH  014%=      5-min Rain = 0
KVP1 142021Z 23019KT 26/M04 A3006 RMK A01 T02551036  RH  014%=      5-min Rain = 0
KVP1 142022Z 23019KT 25/M04 A3006 RMK A01 T02541036  RH  014%=      5-min Rain = 0
KVP1 142023Z 23018G23KT 25/M04 A3006 RMK A01 T02541036  RH  014%=      5-min Rain = 0
KVP1 142024Z 21017KT 25/M04 A3006 RMK A01 T02531037  RH  015%=      5-min Rain = 0
KVP1 142025Z 22014KT 25/M04 A3006 RMK A01 T02541035  RH  015%=      5-min Rain = 0
KVP1 142026Z 22017KT 26/M04 A3005 RMK A01 T02561035  RH  014%=      5-min Rain = 0
KVP1 142027Z 24019KT 26/M04 A3005 RMK A01 T02571036  RH  014%=      5-min Rain = 0
KVP1 142028Z 23014KT 26/M04 A3005 RMK A01 T02551037  RH  014%=      5-min Rain = 0
KVP1 142029Z 20013KT 25/M04 A3005 RMK A01 T02541037  RH  014%=      5-min Rain = 0
KVP1 142030Z 20013KT 26/M04 A3005 RMK A01 T02551038  RH  014%=      5-min Rain = 0
KVP1 142031Z 20016KT 26/M04 A3005 RMK A01 T02551036  RH  014%=      5-min Rain = 0
KVP1 142032Z 21016KT 26/M04 A3005 RMK A01 T02571036  RH  014%=      5-min Rain = 0
KVP1 142033Z 21011KT 26/M04 A3005 RMK A01 T02561036  RH  014%=      5-min Rain = 0
KVP1 142034Z 21011KT 26/M04 A3005 RMK A01 T02561038  RH  014%=      5-min Rain = 0
KVP1 142035Z 21015KT 26/M04 A3005 RMK A01 T02581038  RH  014%=      5-min Rain = 0
KVP1 142036Z 22015G21KT 26/M04 A3004 RMK A01 T02601038  RH  014%=      5-min Rain = 0
KVP1 142037Z 22017G23KT 26/M04 A3004 RMK A01 T02601041  RH  013%=      5-min Rain = 0
KVP1 142038Z 21018KT 26/M04 A3004 RMK A01 T02591041  RH  013%=      5-min Rain = 0
KVP1 142039Z 22020KT 26/M04 A3004 RMK A01 T02581041  RH  014%=      5-min Rain = 0
KVP1 142040Z 22015KT 26/M04 A3004 RMK A01 T02591039  RH  014%=      5-min Rain = 0
KVP1 142041Z 22012KT 26/M04 A3004 RMK A01 T02611037  RH  014%=      5-min Rain = 0
KVP1 142042Z 22013KT 26/M04 A3004 RMK A01 T02621039  RH  013%=      5-min Rain = 0
KVP1 142043Z 23016G21KT 26/M05 A3003 RMK A01 T02631047  RH  013%=      5-min Rain = 0
KVP1 142044Z 23017KT 26/M05 A3004 RMK A01 T02621050  RH  012%=      5-min Rain = 0
KVP1 142045Z 25020KT 26/M05 A3003 RMK A01 T02621046  RH  013%=      5-min Rain = 0
KVP1 142046Z 26017KT 26/M04 A3003 RMK A01 T02621043  RH  013%=      5-min Rain = 0
KVP1 142047Z 24020KT 26/M04 A3004 RMK A01 T02621042  RH  013%=      5-min Rain = 0
KVP1 142048Z 24017KT 26/M04 A3003 RMK A01 T02621042  RH  013%=      5-min Rain = 0
KVP1 142049Z 23016KT 26/M04 A3003 RMK A01 T02621043  RH  013%=      5-min Rain = 0
KVP1 142050Z 22019G25KT 27/M05 A3003 RMK A01 T02651046  RH  013%=      5-min Rain = 0
KVP1 142051Z 23022KT 27/M05 A3003 RMK A01 T02661050  RH  012%=      5-min Rain = 0
KVP1 142052Z 23018G24KT 26/M05 A3003 RMK A01 T02641052  RH  012%=      5-min Rain = 0
KVP1 142053Z 23020G26KT 26/M05 A3003 RMK A01 T02631051  RH  012%=      5-min Rain = 0
KVP1 142054Z 24024G29KT 26/M05 A3003 RMK A01 T02631051  RH  012%=      5-min Rain = 0
KVP1 142055Z 22021KT 26/M05 A3003 RMK A01 T02631051  RH  012%=      5-min Rain = 0
KVP1 142056Z 23021KT 26/M05 A3003 RMK A01 T02621051  RH  012%=      5-min Rain = 0
KVP1 142057Z 22025G30KT 26/M05 A3003 RMK A01 T02621050  RH  012%=      5-min Rain = 0
KVP1 142058Z 22023KT 26/M05 A3003 RMK A01 T02631050  RH  012%=      5-min Rain = 0
KVP1 142059Z 22022KT 26/M05 A3003 RMK A01 T02631050  RH  012%=      5-min Rain = 0
KVP1 142100Z 23019KT 26/M05 A3003 RMK A01 T02621050  RH  012%=      5-min Rain = 0
KVP1 142101Z 23025KT 26/M05 A3003 RMK A01 T02621050  RH  012%=      5-min Rain = 0
KVP1 142102Z 22020KT 26/M05 A3002 RMK A01 T02621050  RH  012%=      5-min Rain = 0
KVP1 142103Z 22027G34KT 26/M05 A3002 RMK A01 T02621049  RH  012%=      5-min Rain = 0
KVP1 142104Z 23026KT 26/M05 A3002 RMK A01 T02621050  RH  012%=      5-min Rain = 0
KVP1 142105Z 22024KT 26/M05 A3002 RMK A01 T02631048  RH  013%=      5-min Rain = 0
KVP1 142106Z 22024KT 26/M05 A3002 RMK A01 T02631050  RH  012%=      5-min Rain = 0
KVP1 142107Z 22021G26KT 26/M05 A3002 RMK A01 T02621050  RH  012%=      5-min Rain = 0
KVP1 142108Z 23019KT 26/M05 A3002 RMK A01 T02621050  RH  012%=      5-min Rain = 0
KVP1 142109Z 23018KT 26/M05 A3002 RMK A01 T02631050  RH  012%=      5-min Rain = 0
KVP1 142110Z 23019G24KT 26/M05 A3002 RMK A01 T02641049  RH  012%=      5-min Rain = 0
KVP1 142111Z 23021KT 27/M05 A3002 RMK A01 T02671047  RH  012%=      5-min Rain = 0
KVP1 142112Z 23022KT 27/M05 A3002 RMK A01 T02681049  RH  012%=      5-min Rain = 0
KVP1 142113Z 23022KT 27/M05 A3002 RMK A01 T02651050  RH  012%=      5-min Rain = 0
KVP1 142114Z 24026KT 27/M05 A3002 RMK A01 T02651049  RH  012%=      5-min Rain = 0
KVP1 142115Z 23021KT 27/M05 A3002 RMK A01 T02661049  RH  012%=      5-min Rain = 0
KVP1 142116Z 23018KT 27/M05 A3002 RMK A01 T02661047  RH  012%=      5-min Rain = 0
KVP1 142117Z 22019G24KT 27/M05 A3002 RMK A01 T02681048  RH  012%=      5-min Rain = 0
KVP1 142118Z 23021KT 27/M05 A3002 RMK A01 T02681048  RH  012%=      5-min Rain = 0
KVP1 142119Z 24023KT 27/M05 A3002 RMK A01 T02661050  RH  012%=      5-min Rain = 0
KVP1 142120Z 23022KT 27/M05 A3002 RMK A01 T02651049  RH  012%=      5-min Rain = 0
KVP1 142121Z 22023G28KT 27/M05 A3002 RMK A01 T02651049  RH  012%=      5-min Rain = 0
KVP1 142122Z 22020G25KT 27/M05 A3002 RMK A01 T02651050  RH  012%=      5-min Rain = 0
KVP1 142123Z 22018G27KT 26/M05 A3002 RMK A01 T02641049  RH  012%=      5-min Rain = 0
KVP1 142124Z 23022KT 27/M05 A3001 RMK A01 T02661049  RH  012%=      5-min Rain = 0
KVP1 142125Z 23020KT 27/M05 A3001 RMK A01 T02661049  RH  012%=      5-min Rain = 0
KVP1 142126Z 23019KT 27/M05 A3001 RMK A01 T02681047  RH  012%=      5-min Rain = 0
KVP1 142127Z 23017KT 27/M05 A3001 RMK A01 T02691049  RH  012%=      5-min Rain = 0
KVP1 142128Z 22021KT 27/M05 A3001 RMK A01 T02691049  RH  012%=      5-min Rain = 0
KVP1 142129Z 22020KT 27/M05 A3001 RMK A01 T02681050  RH  012%=      5-min Rain = 0
KVP1 142130Z 22018G24KT 27/M05 A3001 RMK A01 T02661050  RH  012%=      5-min Rain = 0
KVP1 142131Z 22019KT 27/M05 A3001 RMK A01 T02661049  RH  012%=      5-min Rain = 0
KVP1 142132Z 23018G23KT 27/M05 A3001 RMK A01 T02671049  RH  012%=      5-min Rain = 0
KVP1 142133Z 23018KT 27/M05 A3001 RMK A01 T02671050  RH  012%=      5-min Rain = 0
KVP1 142134Z 23016KT 27/M05 A3001 RMK A01 T02671050  RH  012%=      5-min Rain = 0
KVP1 142135Z 23018KT 27/M05 A3001 RMK A01 T02671049  RH  012%=      5-min Rain = 0
KVP1 142136Z 23020KT 27/M05 A3001 RMK A01 T02671049  RH  012%=      5-min Rain = 0
KVP1 142137Z 23022KT 27/M05 A30 RMK A01 T02671048  RH  012%=      5-min Rain = 0
KVP1 142138Z 22020KT 27/M05 A30 RMK A01 T02661048  RH  012%=      5-min Rain = 0
KVP1 142139Z 22022KT 27/M05 A30 RMK A01 T02671047  RH  012%=      5-min Rain = 0
KVP1 142140Z 21018KT 27/M05 A30 RMK A01 T02671047  RH  012%=      5-min Rain = 0
KVP1 142141Z 22018G24KT 27/M05 A30 RMK A01 T02681046  RH  012%=      5-min Rain = 0
KVP1 142142Z 23016KT 27/M05 A30 RMK A01 T02691047  RH  012%=      5-min Rain = 0
KVP1 142143Z 23019G25KT 27/M05 A30 RMK A01 T02691045  RH  012%=      5-min Rain = 0
KVP1 142144Z 23024KT 27/M04 A30 RMK A01 T02701041  RH  013%=      5-min Rain = 0
KVP1 142145Z 23023KT 27/M04 A30 RMK A01 T02681041  RH  013%=      5-min Rain = 0
KVP1 142146Z 22022G27KT 27/M04 A30 RMK A01 T02671041  RH  013%=      5-min Rain = 0
KVP1 142147Z 23022G27KT 27/M04 A30 RMK A01 T02671039  RH  013%=      5-min Rain = 0
KVP1 142148Z 23021G26KT 27/M04 A30 RMK A01 T02681039  RH  013%=      5-min Rain = 0
KVP1 142149Z 23019KT 27/M04 A30 RMK A01 T02681039  RH  013%=      5-min Rain = 0
KVP1 142150Z 23018KT 27/M04 A30 RMK A01 T02691038  RH  013%=      5-min Rain = 0
KVP1 142151Z 23021G27KT 27/M04 A30 RMK A01 T02701036  RH  013%=      5-min Rain = 0
KVP1 142152Z 22020KT 27/M04 A30 RMK A01 T02701035  RH  013%=      5-min Rain = 0
KVP1 142153Z 22021G26KT 27/M04 A30 RMK A01 T02711036  RH  013%=      5-min Rain = 0
KVP1 142154Z 21025KT 27/M04 A30 RMK A01 T02711035  RH  013%=      5-min Rain = 0
KVP1 142155Z 22023G28KT 27/M03 A30 RMK A01 T02691031  RH  014%=      5-min Rain = 0
KVP1 142156Z 23025KT 27/M03 A30 RMK A01 T02681029  RH  014%=      5-min Rain = 0
KVP1 142157Z 24026KT 27/M03 A30 RMK A01 T02681028  RH  014%=      5-min Rain = 0
KVP1 142158Z 24024G29KT 27/M03 A30 RMK A01 T02681029  RH  014%=      5-min Rain = 0
KVP1 142159Z 23024G29KT 27/M03 A30 RMK A01 T02671031  RH  014%=      5-min Rain = 0
KVP1 142200Z 24024G29KT 27/M03 A2999 RMK A01 T02671032  RH  014%=      5-min Rain = 0
KVP1 142201Z 24022G27KT 27/M03 A2999 RMK A01 T02671030  RH  014%=      5-min Rain = 0
KVP1 142202Z 24021KT 27/M03 A30 RMK A01 T02671029  RH  014%=      5-min Rain = 0
KVP1 142203Z 24023KT 27/M03 A2999 RMK A01 T02681029  RH  014%=      5-min Rain = 0
KVP1 142204Z 25024G30KT 27/M03 A2999 RMK A01 T02681029  RH  014%=      5-min Rain = 0
KVP1 142205Z 24024G31KT 27/M03 A30 RMK A01 T02681028  RH  014%=      5-min Rain = 0
KVP1 142206Z 23021KT 27/M03 A30 RMK A01 T02671028  RH  014%=      5-min Rain = 0
KVP1 142207Z 23022KT 27/M03 A30 RMK A01 T02661028  RH  014%=      5-min Rain = 0
KVP1 142208Z 24025G30KT 27/M03 A30 RMK A01 T02661028  RH  014%=      5-min Rain = 0
KVP1 142209Z 23025KT 27/M03 A2999 RMK A01 T02661025  RH  015%=      5-min Rain = 0
KVP1 142210Z 24026KT 27/M03 A2999 RMK A01 T02651025  RH  015%=      5-min Rain = 0
KVP1 142211Z 23026G33KT 27/M02 A2999 RMK A01 T02651024  RH  015%=      5-min Rain = 0
KVP1 142212Z 22024G31KT 27/M02 A2999 RMK A01 T02651024  RH  015%=      5-min Rain = 0
KVP1 142213Z 23027G32KT 27/M02 A2999 RMK A01 T02651024  RH  015%=      5-min Rain = 0
KVP1 142214Z 23019KT 27/M02 A2999 RMK A01 T02651024  RH  015%=      5-min Rain = 0
KVP1 142215Z 23023G28KT 27/M02 A2999 RMK A01 T02661024  RH  015%=      5-min Rain = 0
KVP1 142216Z 23022KT 27/M03 A2999 RMK A01 T02671025  RH  014%=      5-min Rain = 0
KVP1 142217Z 23021KT 27/M03 A2999 RMK A01 T02671025  RH  015%=      5-min Rain = 0
KVP1 142218Z 24018KT 27/M03 A2999 RMK A01 T02671025  RH  015%=      5-min Rain = 0
KVP1 142219Z 23015G20KT 27/M02 A2999 RMK A01 T02681024  RH  015%=      5-min Rain = 0
KVP1 142220Z 22019KT 27/M02 A2999 RMK A01 T02701024  RH  014%=      5-min Rain = 0
KVP1 142221Z 23018KT 27/M03 A2999 RMK A01 T02711025  RH  014%=      5-min Rain = 0
KVP1 142222Z 23019KT 27/M03 A2999 RMK A01 T02701025  RH  014%=      5-min Rain = 0
KVP1 142223Z 23021G26KT 27/M02 A2999 RMK A01 T02711023  RH  014%=      5-min Rain = 0
KVP1 142224Z 22021G27KT 27/M02 A2999 RMK A01 T02721024  RH  014%=      5-min Rain = 0
KVP1 142225Z 22020G26KT 27/M03 A2999 RMK A01 T02701025  RH  014%=      5-min Rain = 0
KVP1 142226Z 23025KT 27/M03 A2999 RMK A01 T02691026  RH  014%=      5-min Rain = 0
KVP1 142227Z 22023G28KT 27/M03 A2999 RMK A01 T02681028  RH  014%=      5-min Rain = 0
KVP1 142228Z 22023KT 27/M03 A2999 RMK A01 T02661029  RH  014%=      5-min Rain = 0
KVP1 142229Z 22021KT 27/M03 A2999 RMK A01 T02651031  RH  014%=      5-min Rain = 0
KVP1 142230Z 23018KT 26/M03 A2999 RMK A01 T02641030  RH  014%=      5-min Rain = 0
KVP1 142231Z 23020KT 26/M03 A2999 RMK A01 T02641031  RH  014%=      5-min Rain = 0
KVP1 142232Z 24019KT 26/M03 A2999 RMK A01 T02641031  RH  014%=      5-min Rain = 0
KVP1 142233Z 23017G23KT 26/M03 A2999 RMK A01 T02641031  RH  014%=      5-min Rain = 0
KVP1 142234Z 22021G28KT 27/M03 A2999 RMK A01 T02661029  RH  014%=      5-min Rain = 0
KVP1 142235Z 23021G26KT 27/M03 A2999 RMK A01 T02671029  RH  014%=      5-min Rain = 0
KVP1 142236Z 22019G25KT 27/M03 A2999 RMK A01 T02671028  RH  014%=      5-min Rain = 0
KVP1 142237Z 22020KT 27/M03 A2999 RMK A01 T02671028  RH  014%=      5-min Rain = 0
KVP1 142238Z 22020KT 27/M03 A2999 RMK A01 T02681029  RH  014%=      5-min Rain = 0
KVP1 142239Z 23019G24KT 27/M03 A2999 RMK A01 T02671030  RH  014%=      5-min Rain = 0
KVP1 142240Z 23024G29KT 27/M03 A2998 RMK A01 T02671030  RH  014%=      5-min Rain = 0
KVP1 142241Z 23020KT 27/M03 A2999 RMK A01 T02651032  RH  014%=      5-min Rain = 0
KVP1 142242Z 23021KT 26/M03 A2998 RMK A01 T02641032  RH  014%=      5-min Rain = 0
KVP1 142243Z 23016G21KT 26/M03 A2999 RMK A01 T02641032  RH  014%=      5-min Rain = 0
KVP1 142244Z 23019G25KT 26/M03 A2998 RMK A01 T02631031  RH  014%=      5-min Rain = 0
KVP1 142245Z 23022KT 26/M03 A2998 RMK A01 T02631031  RH  014%=      5-min Rain = 0
KVP1 142246Z 23020KT 26/M03 A2998 RMK A01 T02621029  RH  015%=      5-min Rain = 0
KVP1 142247Z 24019KT 26/M03 A2998 RMK A01 T02611026  RH  015%=      5-min Rain = 0
KVP1 142248Z 22015KT 26/M03 A2998 RMK A01 T02611025  RH  015%=      5-min Rain = 0
KVP1 142249Z 23018KT 26/M03 A2998 RMK A01 T02621025  RH  015%=      5-min Rain = 0
KVP1 142250Z 22019KT 26/M02 A2998 RMK A01 T02621023  RH  015%=      5-min Rain = 0
KVP1 142251Z 24017KT 26/M02 A2998 RMK A01 T02621020  RH  015%=      5-min Rain = 0
KVP1 142252Z 24015G21KT 26/M02 A2998 RMK A01 T02631019  RH  016%=      5-min Rain = 0
KVP1 142253Z 24018KT 26/M02 A2998 RMK A01 T02631017  RH  016%=      5-min Rain = 0
KVP1 142254Z 23017KT 26/M02 A2998 RMK A01 T02631016  RH  016%=      5-min Rain = 0
KVP1 142255Z 24017G22KT 26/M02 A2998 RMK A01 T02621015  RH  016%=      5-min Rain = 0
KVP1 142256Z 24018G23KT 26/M01 A2998 RMK A01 T02621014  RH  016%=      5-min Rain = 0
KVP1 142257Z 23024KT 26/M01 A2998 RMK A01 T02621012  RH  016%=      5-min Rain = 0
KVP1 142258Z 23022KT 26/M01 A2998 RMK A01 T02611011  RH  017%=      5-min Rain = 0
KVP1 142259Z 24021KT 26/M01 A2998 RMK A01 T02611012  RH  017%=      5-min Rain = 0
KVP1 142300Z 24022KT 26/M01 A2998 RMK A01 T02611011  RH  017%=      5-min Rain = 0
KVP1 142301Z 24020KT 26/M01 A2998 RMK A01 T02601011  RH  017%=      5-min Rain = 0
KVP1 142302Z 24018G24KT 26/M01 A2998 RMK A01 T02601010  RH  017%=      5-min Rain = 0
KVP1 142303Z 24018KT 26/M01 A2998 RMK A01 T02601010  RH  017%=      5-min Rain = 0
KVP1 142304Z 24019KT 26/M01 A2998 RMK A01 T02601010  RH  017%=      5-min Rain = 0
KVP1 142305Z 24017KT 26/M01 A2998 RMK A01 T02591010  RH  017%=      5-min Rain = 0
KVP1 142306Z 23020KT 26/M01 A2998 RMK A01 T02591009  RH  017%=      5-min Rain = 0
KVP1 142307Z 23018G23KT 26/M01 A2997 RMK A01 T02581008  RH  017%=      5-min Rain = 0
KVP1 142308Z 23020KT 26/M01 A2997 RMK A01 T02581008  RH  017%=      5-min Rain = 0
KVP1 142309Z 24018KT 26/M01 A2997 RMK A01 T02581008  RH  017%=      5-min Rain = 0
KVP1 142310Z 24016KT 26/M01 A2998 RMK A01 T02571007  RH  018%=      5-min Rain = 0
KVP1 142311Z 24021KT 26/M01 A2997 RMK A01 T02561007  RH  018%=      5-min Rain = 0
KVP1 142312Z 24019G24KT 26/M01 A2997 RMK A01 T02561006  RH  018%=      5-min Rain = 0
KVP1 142313Z 24020KT 26/M01 A2997 RMK A01 T02551006  RH  018%=      5-min Rain = 0
KVP1 142314Z 24017G22KT 25/M01 A2998 RMK A01 T02541006  RH  018%=      5-min Rain = 0
KVP1 142315Z 24018G23KT 25/M01 A2997 RMK A01 T02531006  RH  018%=      5-min Rain = 0
KVP1 142316Z 24018KT 25/M01 A2997 RMK A01 T02521006  RH  018%=      5-min Rain = 0
KVP1 142317Z 24019KT 25/M01 A2997 RMK A01 T02521006  RH  018%=      5-min Rain = 0
KVP1 142318Z 25017KT 25/M01 A2997 RMK A01 T02521006  RH  018%=      5-min Rain = 0
KVP1 142319Z 25017KT 25/M01 A2997 RMK A01 T02521005  RH  018%=      5-min Rain = 0
KVP1 142320Z 24020KT 25/M01 A2997 RMK A01 T02521005  RH  018%=      5-min Rain = 0
KVP1 142321Z 25019KT 25/M00 A2997 RMK A01 T02521004  RH  019%=      5-min Rain = 0
KVP1 142322Z 25018KT 25/M00 A2997 RMK A01 T02521003  RH  019%=      5-min Rain = 0
KVP1 142323Z 25019G24KT 25/M00 A2997 RMK A01 T02511003  RH  019%=      5-min Rain = 0
KVP1 142324Z 25019G26KT 25/M00 A2997 RMK A01 T02511003  RH  019%=      5-min Rain = 0
KVP1 142325Z 25019KT 25/M00 A2997 RMK A01 T02511004  RH  019%=      5-min Rain = 0
KVP1 142326Z 25018KT 25/M01 A2997 RMK A01 T02511005  RH  019%=      5-min Rain = 0
KVP1 142327Z 24016KT 25/M01 A2997 RMK A01 T02501007  RH  018%=      5-min Rain = 0
KVP1 142328Z 25016G21KT 25/M01 A2997 RMK A01 T02501009  RH  018%=      5-min Rain = 0
KVP1 142329Z 25015KT 25/M01 A2997 RMK A01 T02491011  RH  018%=      5-min Rain = 0
KVP1 142330Z 25015KT 25/M01 A2997 RMK A01 T02481011  RH  018%=      5-min Rain = 0
KVP1 142331Z 25015KT 25/M01 A2997 RMK A01 T02481012  RH  018%=      5-min Rain = 0
KVP1 142332Z 25015KT 25/M01 A2997 RMK A01 T02471014  RH  018%=      5-min Rain = 0
KVP1 142333Z 26015KT 25/M01 A2997 RMK A01 T02471014  RH  018%=      5-min Rain = 0
KVP1 142334Z 26015KT 25/M02 A2997 RMK A01 T02461015  RH  018%=      5-min Rain = 0
KVP1 142335Z 25014KT 25/M02 A2997 RMK A01 T02461016  RH  018%=      5-min Rain = 0
KVP1 142336Z 26013KT 25/M02 A2997 RMK A01 T02451017  RH  018%=      5-min Rain = 0
KVP1 142337Z 26015KT 24/M02 A2997 RMK A01 T02441018  RH  018%=      5-min Rain = 0
KVP1 142338Z 26013KT 24/M02 A2997 RMK A01 T02431019  RH  018%=      5-min Rain = 0
KVP1 142339Z 26012KT 24/M02 A2997 RMK A01 T02421020  RH  017%=      5-min Rain = 0
KVP1 142340Z 27012KT 24/M02 A2997 RMK A01 T02411021  RH  017%=      5-min Rain = 0
KVP1 142341Z 26011KT 24/M02 A2997 RMK A01 T02411023  RH  017%=      5-min Rain = 0
KVP1 142342Z 27011KT 24/M02 A2997 RMK A01 T02401024  RH  017%=      5-min Rain = 0
KVP1 142343Z 26012KT 24/M03 A2997 RMK A01 T02391025  RH  017%=      5-min Rain = 0
KVP1 142344Z 26011KT 24/M03 A2997 RMK A01 T02391026  RH  017%=      5-min Rain = 0
KVP1 142345Z 27011KT 24/M03 A2997 RMK A01 T02381028  RH  017%=      5-min Rain = 0
KVP1 142346Z 27011KT 24/M03 A2997 RMK A01 T02371029  RH  017%=      5-min Rain = 0
KVP1 142347Z 27010KT 24/M03 A2997 RMK A01 T02361029  RH  017%=      5-min Rain = 0
KVP1 142348Z 27010KT 24/M03 A2997 RMK A01 T02351030  RH  017%=      5-min Rain = 0
KVP1 142349Z 27008KT 23/M03 A2997 RMK A01 T02341030  RH  017%=      5-min Rain = 0
KVP1 142350Z 27008KT 23/M03 A2997 RMK A01 T02321030  RH  017%=      5-min Rain = 0
KVP1 142351Z 27008KT 23/M03 A2997 RMK A01 T02311031  RH  017%=      5-min Rain = 0
KVP1 142352Z 26009KT 23/M03 A2997 RMK A01 T02301032  RH  017%=      5-min Rain = 0
KVP1 142353Z 26009KT 23/M03 A2997 RMK A01 T02291032  RH  017%=      5-min Rain = 0
KVP1 142354Z 26009KT 23/M03 A2997 RMK A01 T02281033  RH  017%=      5-min Rain = 0
KVP1 142355Z 26009KT 23/M03 A2997 RMK A01 T02271033  RH  017%=      5-min Rain = 0
KVP1 142356Z 26008KT 23/M03 A2997 RMK A01 T02271033  RH  017%=      5-min Rain = 0
KVP1 142357Z 27008KT 23/M03 A2997 RMK A01 T02251033  RH  018%=      5-min Rain = 0
KVP1 142358Z 27008KT 22/M03 A2997 RMK A01 T02241034  RH  018%=      5-min Rain = 0
KVP1 142359Z 27007KT 22/M03 A2997 RMK A01 T02231034  RH  018%=      5-min Rain = 0
KVP1 150000Z 27007KT 22/M03 A2997 RMK A01 T02221034  RH  018%=      5-min Rain = 0
KVP1 150001Z 26007KT 22/M04 A2997 RMK A01 T02201035  RH  018%=      5-min Rain = 0
KVP1 150002Z 25008KT 22/M04 A2997 RMK A01 T02191035  RH  018%=      5-min Rain = 0
KVP1 150003Z 25008KT 22/M04 A2997 RMK A01 T02161035  RH  018%=      5-min Rain = 0
KVP1 150004Z 26008KT 22/M04 A2997 RMK A01 T02151036  RH  018%=      5-min Rain = 0
KVP1 150005Z 25008KT 21/M04 A2997 RMK A01 T02141036  RH  018%=      5-min Rain = 0
KVP1 150006Z 24008KT 21/M04 A2997 RMK A01 T02131036  RH  019%=      5-min Rain = 0
KVP1 150007Z 24008KT 21/M04 A2997 RMK A01 T02121035  RH  019%=      5-min Rain = 0
KVP1 150008Z 24008KT 21/M04 A2997 RMK A01 T02111036  RH  019%=      5-min Rain = 0
KVP1 150009Z 24008KT 21/M04 A2997 RMK A01 T02101035  RH  019%=      5-min Rain = 0
KVP1 150010Z 24007KT 21/M04 A2997 RMK A01 T02101035  RH  019%=      5-min Rain = 0
KVP1 150011Z 24007KT 21/M04 A2997 RMK A01 T02091036  RH  019%=      5-min Rain = 0
KVP1 150012Z 24007KT 21/M04 A2997 RMK A01 T02081036  RH  019%=      5-min Rain = 0
KVP1 150013Z 24007KT 21/M04 A2997 RMK A01 T02071037  RH  019%=      5-min Rain = 0
KVP1 150014Z 24008KT 21/M04 A2997 RMK A01 T02061037  RH  019%=      5-min Rain = 0
KVP1 150015Z 24007KT 20/M04 A2997 RMK A01 T02041037  RH  019%=      5-min Rain = 0
KVP1 150016Z 24007KT 20/M04 A2997 RMK A01 T02021037  RH  020%=      5-min Rain = 0
KVP1 150017Z 25006KT 20/M04 A2997 RMK A01 T02011037  RH  020%=      5-min Rain = 0
KVP1 150018Z 25008KT 20/M04 A2997 RMK A01 T02011037  RH  020%=      5-min Rain = 0
KVP1 150019Z 26008KT 20/M04 A2998 RMK A01 T02001037  RH  020%=      5-min Rain = 0
KVP1 150020Z 25009KT 20/M04 A2998 RMK A01 T01981038  RH  020%=      5-min Rain = 0
KVP1 150021Z 25009KT 20/M04 A2998 RMK A01 T01971038  RH  020%=      5-min Rain = 0
KVP1 150022Z 26008KT 20/M04 A2998 RMK A01 T01951038  RH  020%=      5-min Rain = 0
KVP1 150023Z 26008KT 19/M04 A2998 RMK A01 T01931039  RH  020%=      5-min Rain = 0
KVP1 150024Z 25007KT 19/M04 A2998 RMK A01 T01921039  RH  021%=      5-min Rain = 0
KVP1 150025Z 25006KT 19/M04 A2997 RMK A01 T01901039  RH  021%=      5-min Rain = 0
KVP1 150026Z 26007KT 19/M04 A2997 RMK A01 T01891039  RH  021%=      5-min Rain = 0
KVP1 150027Z 25007KT 19/M04 A2997 RMK A01 T01881039  RH  021%=      5-min Rain = 0
KVP1 150028Z 26007KT 19/M04 A2997 RMK A01 T01871039  RH  021%=      5-min Rain = 0
KVP1 150029Z 25006KT 19/M04 A2997 RMK A01 T01851039  RH  021%=      5-min Rain = 0
KVP1 150030Z 23004KT 18/M04 A2997 RMK A01 T01841040  RH  021%=      5-min Rain = 0
KVP1 150031Z 23004KT 18/M04 A2998 RMK A01 T01831040  RH  022%=      5-min Rain = 0
KVP1 150032Z 24005KT 18/M04 A2998 RMK A01 T01831039  RH  022%=      5-min Rain = 0
KVP1 150033Z 22004KT 18/M04 A2998 RMK A01 T01841039  RH  022%=      5-min Rain = 0
KVP1 150034Z 23004KT 18/M04 A2998 RMK A01 T01841040  RH  022%=      5-min Rain = 0
KVP1 150035Z 23005KT 18/M04 A2997 RMK A01 T01831040  RH  022%=      5-min Rain = 0
KVP1 150036Z 24005KT 18/M04 A2997 RMK A01 T01821040  RH  022%=      5-min Rain = 0
KVP1 150037Z 24006KT 18/M04 A2998 RMK A01 T01821040  RH  022%=      5-min Rain = 0
KVP1 150038Z 24006KT 18/M04 A2998 RMK A01 T01811040  RH  022%=      5-min Rain = 0
KVP1 150039Z 24006KT 18/M04 A2998 RMK A01 T01801041  RH  022%=      5-min Rain = 0
KVP1 150040Z 24006KT 18/M04 A2998 RMK A01 T01791042  RH  022%=      5-min Rain = 0
KVP1 150041Z 23006KT 18/M04 A2998 RMK A01 T01791041  RH  022%=      5-min Rain = 0
KVP1 150042Z 24006KT 18/M04 A2998 RMK A01 T01781042  RH  022%=      5-min Rain = 0
KVP1 150043Z 24007KT 18/M04 A2997 RMK A01 T01771042  RH  022%=      5-min Rain = 0
KVP1 150044Z 24007KT 18/M04 A2997 RMK A01 T01761042  RH  022%=      5-min Rain = 0
KVP1 150045Z 25007KT 18/M04 A2997 RMK A01 T01761043  RH  022%=      5-min Rain = 0
KVP1 150046Z 24007KT 18/M04 A2997 RMK A01 T01771043  RH  022%=      5-min Rain = 0
KVP1 150047Z 24007KT 18/M04 A2997 RMK A01 T01771043  RH  022%=      5-min Rain = 0
KVP1 150048Z 25008KT 18/M04 A2997 RMK A01 T01771043  RH  022%=      5-min Rain = 0
KVP1 150049Z 25008KT 18/M04 A2997 RMK A01 T01771043  RH  022%=      5-min Rain = 0
KVP1 150050Z 24008KT 18/M04 A2997 RMK A01 T01761043  RH  022%=      5-min Rain = 0
KVP1 150051Z 24009KT 18/M04 A2997 RMK A01 T01751044  RH  022%=      5-min Rain = 0
KVP1 150052Z 24010KT 17/M04 A2997 RMK A01 T01741043  RH  023%=      5-min Rain = 0
KVP1 150053Z 24008KT 18/M04 A2997 RMK A01 T01761041  RH  022%=      5-min Rain = 0
KVP1 150054Z 24008KT 18/M04 A2997 RMK A01 T01771040  RH  022%=      5-min Rain = 0
KVP1 150055Z 24009KT 18/M04 A2997 RMK A01 T01781039  RH  023%=      5-min Rain = 0
KVP1 150056Z 24010KT 18/M04 A2997 RMK A01 T01791039  RH  022%=      5-min Rain = 0
KVP1 150057Z 24009KT 18/M04 A2997 RMK A01 T01801038  RH  022%=      5-min Rain = 0
KVP1 150058Z 24009KT 18/M04 A2997 RMK A01 T01801039  RH  022%=      5-min Rain = 0
KVP1 150059Z 24009KT 18/M04 A2997 RMK A01 T01801039  RH  022%=      5-min Rain = 0
KVP1 150100Z 24009KT 18/M04 A2997 RMK A01 T01791038  RH  022%=      5-min Rain = 0
KVP1 150101Z 24008KT 18/M04 A2997 RMK A01 T01781039  RH  023%=      5-min Rain = 0
KVP1 150102Z 23008KT 18/M04 A2997 RMK A01 T01781039  RH  023%=      5-min Rain = 0
KVP1 150103Z 23007KT 18/M04 A2998 RMK A01 T01771040  RH  023%=      5-min Rain = 0
KVP1 150104Z 24008KT 18/M04 A2998 RMK A01 T01751040  RH  023%=      5-min Rain = 0
KVP1 150105Z 24008KT 17/M04 A2998 RMK A01 T01741040  RH  023%=      5-min Rain = 0
KVP1 150106Z 24008KT 17/M04 A2997 RMK A01 T01731041  RH  023%=      5-min Rain = 0
KVP1 150107Z 24008KT 17/M04 A2997 RMK A01 T01721041  RH  023%=      5-min Rain = 0
KVP1 150108Z 24008KT 17/M04 A2997 RMK A01 T01701041  RH  023%=      5-min Rain = 0
KVP1 150109Z 24009KT 17/M04 A2998 RMK A01 T01691042  RH  023%=      5-min Rain = 0
KVP1 150110Z 24008KT 17/M04 A2998 RMK A01 T01681041  RH  024%=      5-min Rain = 0
KVP1 150111Z 24008KT 17/M04 A2998 RMK A01 T01671042  RH  024%=      5-min Rain = 0
KVP1 150112Z 24008KT 17/M04 A2998 RMK A01 T01661042  RH  024%=      5-min Rain = 0
KVP1 150113Z 24008KT 17/M04 A2998 RMK A01 T01651042  RH  024%=      5-min Rain = 0
KVP1 150114Z 24008KT 17/M04 A2998 RMK A01 T01651042  RH  024%=      5-min Rain = 0
KVP1 150115Z 24007KT 16/M04 A2998 RMK A01 T01641042  RH  024%=      5-min Rain = 0
KVP1 150116Z 24007KT 16/M04 A2998 RMK A01 T01631042  RH  024%=      5-min Rain = 0
KVP1 150117Z 24007KT 16/M04 A2998 RMK A01 T01621042  RH  024%=      5-min Rain = 0
KVP1 150118Z 25007KT 16/M04 A2997 RMK A01 T01611042  RH  025%=      5-min Rain = 0
KVP1 150119Z 26006KT 16/M04 A2997 RMK A01 T01601042  RH  025%=      5-min Rain = 0
KVP1 150120Z 27006KT 16/M04 A2997 RMK A01 T01591043  RH  025%=      5-min Rain = 0
KVP1 150121Z 25008KT 16/M04 A2998 RMK A01 T01571044  RH  025%=      5-min Rain = 0
KVP1 150122Z 25010KT 16/M05 A2998 RMK A01 T01561045  RH  025%=      5-min Rain = 0
KVP1 150123Z 25009KT 16/M05 A2997 RMK A01 T01561045  RH  025%=      5-min Rain = 0
KVP1 150124Z 25008KT 16/M05 A2998 RMK A01 T01551046  RH  025%=      5-min Rain = 0
KVP1 150125Z 25008KT 15/M05 A2998 RMK A01 T01531046  RH  025%=      5-min Rain = 0
KVP1 150126Z 24009KT 15/M05 A2998 RMK A01 T01521046  RH  025%=      5-min Rain = 0
KVP1 150127Z 25009KT 15/M05 A2998 RMK A01 T01521046  RH  025%=      5-min Rain = 0
KVP1 150128Z 25009KT 15/M05 A2998 RMK A01 T01531046  RH  025%=      5-min Rain = 0
KVP1 150129Z 25009KT 15/M05 A2998 RMK A01 T01531046  RH  025%=      5-min Rain = 0
KVP1 150130Z 25010KT 15/M05 A2998 RMK A01 T01531045  RH  025%=      5-min Rain = 0
KVP1 150131Z 25011KT 15/M05 A2998 RMK A01 T01531045  RH  025%=      5-min Rain = 0
KVP1 150132Z 24010KT 16/M04 A2998 RMK A01 T01561043  RH  025%=      5-min Rain = 0
KVP1 150133Z 25007KT 16/M04 A2998 RMK A01 T01581043  RH  025%=      5-min Rain = 0
KVP1 150134Z 24009KT 16/M04 A2998 RMK A01 T01561044  RH  025%=      5-min Rain = 0
KVP1 150135Z 24010KT 16/M04 A2998 RMK A01 T01551043  RH  025%=      5-min Rain = 0
KVP1 150136Z 24010KT 16/M04 A2998 RMK A01 T01571042  RH  025%=      5-min Rain = 0
KVP1 150137Z 24009KT 16/M04 A2998 RMK A01 T01601040  RH  025%=      5-min Rain = 0
KVP1 150138Z 25008KT 16/M04 A2998 RMK A01 T01621040  RH  025%=      5-min Rain = 0
KVP1 150139Z 24009KT 16/M04 A2998 RMK A01 T01631039  RH  025%=      5-min Rain = 0
KVP1 150140Z 23007KT 16/M04 A2998 RMK A01 T01641041  RH  024%=      5-min Rain = 0
KVP1 150141Z 24009KT 16/M04 A2998 RMK A01 T01611042  RH  024%=      5-min Rain = 0
KVP1 150142Z 24008KT 16/M04 A2998 RMK A01 T01591042  RH  025%=      5-min Rain = 0
KVP1 150143Z 24009KT 16/M04 A2998 RMK A01 T01581042  RH  025%=      5-min Rain = 0
KVP1 150144Z 24009KT 16/M04 A2998 RMK A01 T01581041  RH  025%=      5-min Rain = 0
KVP1 150145Z 24009KT 16/M04 A2998 RMK A01 T01581041  RH  025%=      5-min Rain = 0
KVP1 150146Z 24008KT 16/M04 A2998 RMK A01 T01581040  RH  025%=      5-min Rain = 0
KVP1 150147Z 24008KT 16/M04 A2998 RMK A01 T01581038  RH  026%=      5-min Rain = 0
KVP1 150148Z 24008KT 16/M04 A2998 RMK A01 T01581038  RH  026%=      5-min Rain = 0
KVP1 150149Z 24008KT 16/M04 A2998 RMK A01 T01591037  RH  026%=      5-min Rain = 0
KVP1 150150Z 24008KT 16/M04 A2998 RMK A01 T01601036  RH  026%=      5-min Rain = 0
KVP1 150151Z 23008KT 16/M04 A2998 RMK A01 T01611036  RH  026%=      5-min Rain = 0
KVP1 150152Z 24008KT 16/M04 A2998 RMK A01 T01611035  RH  026%=      5-min Rain = 0
KVP1 150153Z 24008KT 16/M04 A2998 RMK A01 T01591036  RH  026%=      5-min Rain = 0
KVP1 150154Z 24008KT 16/M04 A2998 RMK A01 T01581036  RH  026%=      5-min Rain = 0
KVP1 150155Z 24008KT 16/M04 A2998 RMK A01 T01571036  RH  026%=      5-min Rain = 0
KVP1 150156Z 24008KT 16/M04 A2998 RMK A01 T01561037  RH  026%=      5-min Rain = 0
KVP1 150157Z 24008KT 16/M04 A2998 RMK A01 T01551037  RH  027%=      5-min Rain = 0
KVP1 150158Z 24008KT 15/M04 A2998 RMK A01 T01531037  RH  027%=      5-min Rain = 0
KVP1 150159Z 24008KT 15/M04 A2998 RMK A01 T01521037  RH  027%=      5-min Rain = 0
KVP1 150200Z 24008KT 15/M04 A2998 RMK A01 T01521036  RH  027%=      5-min Rain = 0
KVP1 150201Z 24008KT 15/M04 A2998 RMK A01 T01511037  RH  027%=      5-min Rain = 0
KVP1 150202Z 24008KT 15/M04 A2998 RMK A01 T01491037  RH  027%=      5-min Rain = 0
KVP1 150203Z 24009KT 15/M04 A2998 RMK A01 T01471038  RH  028%=      5-min Rain = 0
KVP1 150204Z 24009KT 15/M04 A2998 RMK A01 T01461038  RH  028%=      5-min Rain = 0
KVP1 150205Z 24009KT 15/M04 A2998 RMK A01 T01451037  RH  028%=      5-min Rain = 0
KVP1 150206Z 24009KT 14/M04 A2998 RMK A01 T01441036  RH  029%=      5-min Rain = 0
KVP1 150207Z 24009KT 14/M03 A2998 RMK A01 T01441034  RH  029%=      5-min Rain = 0
KVP1 150208Z 23010KT 14/M04 A2998 RMK A01 T01431035  RH  029%=      5-min Rain = 0
KVP1 150209Z 23010KT 14/M03 A2998 RMK A01 T01431034  RH  029%=      5-min Rain = 0
KVP1 150210Z 23010KT 14/M03 A2998 RMK A01 T01431032  RH  030%=      5-min Rain = 0
KVP1 150211Z 23010KT 14/M03 A2998 RMK A01 T01431031  RH  030%=      5-min Rain = 0
KVP1 150212Z 23009KT 14/M03 A2998 RMK A01 T01431030  RH  030%=      5-min Rain = 0
KVP1 150213Z 22010KT 14/M03 A2998 RMK A01 T01421031  RH  030%=      5-min Rain = 0
KVP1 150214Z 22010KT 14/M03 A2998 RMK A01 T01411030  RH  030%=      5-min Rain = 0
KVP1 150215Z 22010KT 14/M03 A2998 RMK A01 T01411029  RH  031%=      5-min Rain = 0
KVP1 150216Z 22010KT 14/M03 A2998 RMK A01 T01401028  RH  031%=      5-min Rain = 0
KVP1 150217Z 22010KT 14/M03 A2998 RMK A01 T01391028  RH  031%=      5-min Rain = 0
KVP1 150218Z 23010KT 14/M03 A2999 RMK A01 T01381027  RH  032%=      5-min Rain = 0
KVP1 150219Z 23010KT 14/M03 A2998 RMK A01 T01371026  RH  032%=      5-min Rain = 0
KVP1 150220Z 23010KT 14/M03 A2998 RMK A01 T01371025  RH  032%=      5-min Rain = 0
KVP1 150221Z 22010KT 14/M03 A2998 RMK A01 T01371025  RH  032%=      5-min Rain = 0
KVP1 150222Z 23010KT 14/M03 A2998 RMK A01 T01371025  RH  032%=      5-min Rain = 0
KVP1 150223Z 22010KT 14/M02 A2998 RMK A01 T01371024  RH  033%=      5-min Rain = 0
KVP1 150224Z 23010KT 14/M02 A2999 RMK A01 T01371024  RH  033%=      5-min Rain = 0
KVP1 150225Z 22010KT 14/M02 A2999 RMK A01 T01381023  RH  033%=      5-min Rain = 0
KVP1 150226Z 22010KT 14/M02 A2999 RMK A01 T01381023  RH  033%=      5-min Rain = 0
KVP1 150227Z 22010KT 14/M02 A2998 RMK A01 T01381022  RH  033%=      5-min Rain = 0
KVP1 150228Z 22010KT 14/M02 A2998 RMK A01 T01401021  RH  033%=      5-min Rain = 0
KVP1 150229Z 22010KT 14/M02 A2998 RMK A01 T01401021  RH  033%=      5-min Rain = 0
KVP1 150230Z 22010KT 14/M02 A2998 RMK A01 T01411020  RH  033%=      5-min Rain = 0
KVP1 150231Z 22011KT 14/M02 A2998 RMK A01 T01411020  RH  033%=      5-min Rain = 0
KVP1 150232Z 22011KT 14/M02 A2998 RMK A01 T01411020  RH  033%=      5-min Rain = 0
KVP1 150233Z 22011KT 14/M02 A2998 RMK A01 T01411019  RH  033%=      5-min Rain = 0
KVP1 150234Z 22011KT 14/M02 A2998 RMK A01 T01411019  RH  033%=      5-min Rain = 0
KVP1 150235Z 22010KT 14/M02 A2998 RMK A01 T01411019  RH  033%=      5-min Rain = 0
KVP1 150236Z 22010KT 14/M02 A2998 RMK A01 T01411018  RH  033%=      5-min Rain = 0
KVP1 150237Z 22011KT 14/M02 A2998 RMK A01 T01421018  RH  033%=      5-min Rain = 0
KVP1 150238Z 22011KT 14/M02 A2998 RMK A01 T01421018  RH  033%=      5-min Rain = 0
KVP1 150239Z 22012KT 14/M02 A2998 RMK A01 T01421018  RH  033%=      5-min Rain = 0
KVP1 150240Z 22011KT 14/M02 A2998 RMK A01 T01421018  RH  033%=      5-min Rain = 0
KVP1 150241Z 22011KT 14/M02 A2998 RMK A01 T01431017  RH  033%=      5-min Rain = 0
KVP1 150242Z 22011KT 14/M02 A2998 RMK A01 T01441017  RH  033%=      5-min Rain = 0
KVP1 150243Z 22011KT 15/M02 A2998 RMK A01 T01451017  RH  033%=      5-min Rain = 0
KVP1 150244Z 22011KT 15/M02 A2998 RMK A01 T01451017  RH  033%=      5-min Rain = 0
KVP1 150245Z 22011KT 15/M02 A2998 RMK A01 T01461017  RH  033%=      5-min Rain = 0
KVP1 150246Z 22011KT 15/M02 A2998 RMK A01 T01471017  RH  032%=      5-min Rain = 0
KVP1 150247Z 22012KT 15/M02 A2998 RMK A01 T01491016  RH  032%=      5-min Rain = 0
KVP1 150248Z 22012KT 15/M02 A2998 RMK A01 T01511015  RH  032%=      5-min Rain = 0
KVP1 150249Z 22013KT 15/M02 A2998 RMK A01 T01531015  RH  032%=      5-min Rain = 0
KVP1 150250Z 22012KT 16/M02 A2998 RMK A01 T01551015  RH  031%=      5-min Rain = 0
KVP1 150251Z 22012KT 16/M02 A2998 RMK A01 T01571015  RH  031%=      5-min Rain = 0
KVP1 150252Z 22012KT 16/M02 A2998 RMK A01 T01581015  RH  031%=      5-min Rain = 0
KVP1 150253Z 22012KT 16/M02 A2998 RMK A01 T01591015  RH  030%=      5-min Rain = 0
KVP1 150254Z 22011KT 16/M01 A2998 RMK A01 T01601014  RH  030%=      5-min Rain = 0
KVP1 150255Z 22012KT 16/M02 A2998 RMK A01 T01601015  RH  030%=      5-min Rain = 0
KVP1 150256Z 22012KT 16/M02 A2998 RMK A01 T01601015  RH  030%=      5-min Rain = 0
KVP1 150257Z 22012KT 16/M02 A2998 RMK A01 T01601015  RH  030%=      5-min Rain = 0
KVP1 150258Z 22012KT 16/M02 A2998 RMK A01 T01601015  RH  030%=      5-min Rain = 0
KVP1 150259Z 22011KT 16/M02 A2999 RMK A01 T01601015  RH  030%=      5-min Rain = 0
KVP1 150300Z 22011KT 16/M02 A2999 RMK A01 T01591015  RH  030%=      5-min Rain = 0
KVP1 150301Z 22012KT 16/M02 A2999 RMK A01 T01591015  RH  030%=      5-min Rain = 0
KVP1 150302Z 22012KT 16/M02 A2998 RMK A01 T01581016  RH  030%=      5-min Rain = 0
KVP1 150303Z 22011KT 16/M02 A2998 RMK A01 T01581015  RH  030%=      5-min Rain = 0
KVP1 150304Z 22011KT 16/M02 A2998 RMK A01 T01581015  RH  031%=      5-min Rain = 0
KVP1 150305Z 22012KT 16/M02 A2998 RMK A01 T01571016  RH  031%=      5-min Rain = 0
KVP1 150306Z 22012KT 16/M02 A2999 RMK A01 T01571016  RH  031%=      5-min Rain = 0
KVP1 150307Z 22011KT 16/M02 A2999 RMK A01 T01571015  RH  031%=      5-min Rain = 0
KVP1 150308Z 22012KT 16/M02 A2999 RMK A01 T01571016  RH  031%=      5-min Rain = 0
KVP1 150309Z 22011KT 16/M02 A2999 RMK A01 T01571016  RH  031%=      5-min Rain = 0
KVP1 150310Z 22011KT 16/M02 A2999 RMK A01 T01571016  RH  031%=      5-min Rain = 0
KVP1 150311Z 22011KT 16/M02 A2999 RMK A01 T01561016  RH  031%=      5-min Rain = 0
KVP1 150312Z 22011KT 16/M02 A2999 RMK A01 T01561016  RH  031%=      5-min Rain = 0
KVP1 150313Z 22011KT 16/M02 A2999 RMK A01 T01551016  RH  031%=      5-min Rain = 0
KVP1 150314Z 22011KT 16/M02 A2998 RMK A01 T01551016  RH  031%=      5-min Rain = 0
KVP1 150315Z 22012KT 16/M02 A2998 RMK A01 T01551016  RH  031%=      5-min Rain = 0
KVP1 150316Z 22011KT 16/M02 A2998 RMK A01 T01551016  RH  031%=      5-min Rain = 0
KVP1 150317Z 21012KT 16/M02 A2998 RMK A01 T01551016  RH  031%=      5-min Rain = 0
KVP1 150318Z 22011KT 16/M02 A2998 RMK A01 T01561016  RH  031%=      5-min Rain = 0
KVP1 150319Z 22011KT 16/M02 A2998 RMK A01 T01571016  RH  031%=      5-min Rain = 0
KVP1 150320Z 21013KT 16/M02 A2998 RMK A01 T01581015  RH  031%=      5-min Rain = 0
KVP1 150321Z 21013KT 16/M02 A2998 RMK A01 T01581015  RH  030%=      5-min Rain = 0
KVP1 150322Z 21014KT 16/M02 A2998 RMK A01 T01601015  RH  030%=      5-min Rain = 0
KVP1 150323Z 21015KT 16/M02 A2998 RMK A01 T01621015  RH  030%=      5-min Rain = 0
KVP1 150324Z 21015KT 16/M02 A2998 RMK A01 T01641015  RH  029%=      5-min Rain = 0
KVP1 150325Z 22014KT 17/M01 A2998 RMK A01 T01661014  RH  029%=      5-min Rain = 0
KVP1 150326Z 21014KT 17/M01 A2998 RMK A01 T01671014  RH  029%=      5-min Rain = 0
KVP1 150327Z 22015KT 17/M01 A2998 RMK A01 T01681014  RH  029%=      5-min Rain = 0
KVP1 150328Z 22013KT 17/M01 A2999 RMK A01 T01691014  RH  029%=      5-min Rain = 0
KVP1 150329Z 21014KT 17/M01 A2998 RMK A01 T01701014  RH  029%=      5-min Rain = 0
KVP1 150330Z 22014KT 17/M01 A2998 RMK A01 T01701014  RH  028%=      5-min Rain = 0
KVP1 150331Z 22014KT 17/M01 A2998 RMK A01 T01711013  RH  028%=      5-min Rain = 0
KVP1 150332Z 22014KT 17/M01 A2998 RMK A01 T01731013  RH  028%=      5-min Rain = 0
KVP1 150333Z 22015KT 17/M01 A2998 RMK A01 T01741012  RH  028%=      5-min Rain = 0
KVP1 150334Z 22014KT 18/M01 A2998 RMK A01 T01751012  RH  028%=      5-min Rain = 0
KVP1 150335Z 22014KT 18/M01 A2998 RMK A01 T01751012  RH  028%=      5-min Rain = 0
KVP1 150336Z 22015KT 18/M01 A2998 RMK A01 T01751011  RH  028%=      5-min Rain = 0
KVP1 150337Z 22015KT 18/M01 A2998 RMK A01 T01761011  RH  028%=      5-min Rain = 0
KVP1 150338Z 22015KT 18/M01 A2998 RMK A01 T01761010  RH  028%=      5-min Rain = 0
KVP1 150339Z 22015KT 18/M01 A2998 RMK A01 T01781009  RH  028%=      5-min Rain = 0
KVP1 150340Z 22014G19KT 18/M01 A2998 RMK A01 T01791009  RH  028%=      5-min Rain = 0
KVP1 150341Z 22016KT 18/M01 A2999 RMK A01 T01791008  RH  028%=      5-min Rain = 0
KVP1 150342Z 21015KT 18/M01 A2999 RMK A01 T01801008  RH  028%=      5-min Rain = 0
KVP1 150343Z 21015KT 18/M01 A2999 RMK A01 T01801007  RH  028%=      5-min Rain = 0
KVP1 150344Z 21015KT 18/M01 A2999 RMK A01 T01801007  RH  028%=      5-min Rain = 0
KVP1 150345Z 22014KT 18/M01 A2999 RMK A01 T01801007  RH  028%=      5-min Rain = 0
KVP1 150346Z 22015KT 18/M01 A2999 RMK A01 T01801008  RH  028%=      5-min Rain = 0
KVP1 150347Z 22014KT 18/M01 A2999 RMK A01 T01791008  RH  028%=      5-min Rain = 0
KVP1 150348Z 22013KT 18/M01 A2999 RMK A01 T01781007  RH  028%=      5-min Rain = 0
KVP1 150349Z 22014KT 18/M01 A2999 RMK A01 T01781007  RH  029%=      5-min Rain = 0
KVP1 150350Z 22014KT 18/M01 A2999 RMK A01 T01771007  RH  029%=      5-min Rain = 0
KVP1 150351Z 22014KT 18/M01 A2999 RMK A01 T01761007  RH  029%=      5-min Rain = 0
KVP1 150352Z 22013KT 18/M01 A2999 RMK A01 T01751007  RH  029%=      5-min Rain = 0
KVP1 150353Z 22013KT 18/M01 A2999 RMK A01 T01751007  RH  029%=      5-min Rain = 0
KVP1 150354Z 22013KT 18/M01 A2999 RMK A01 T01751007  RH  029%=      5-min Rain = 0
KVP1 150355Z 22014KT 18/M01 A2999 RMK A01 T01751007  RH  029%=      5-min Rain = 0
KVP1 150356Z 22013KT 18/M01 A2999 RMK A01 T01751006  RH  029%=      5-min Rain = 0
KVP1 150357Z 22014KT 17/M01 A2999 RMK A01 T01741006  RH  029%=      5-min Rain = 0
KVP1 150358Z 23015KT 17/M01 A2999 RMK A01 T01741006  RH  030%=      5-min Rain = 0
KVP1 150359Z 23014KT 17/M01 A2999 RMK A01 T01741005  RH  030%=      5-min Rain = 0
KVP1 150400Z 23015G20KT 17/M01 A2999 RMK A01 T01741005  RH  030%=      5-min Rain = 0
KVP1 150401Z 23014KT 17/M00 A2999 RMK A01 T01741004  RH  030%=      5-min Rain = 0
KVP1 150402Z 22015KT 18/M00 A2999 RMK A01 T01751004  RH  030%=      5-min Rain = 0
KVP1 150403Z 22014G19KT 18/M00 A2999 RMK A01 T01761003  RH  030%=      5-min Rain = 0
KVP1 150404Z 23014KT 18/M00 A2999 RMK A01 T01761003  RH  030%=      5-min Rain = 0
KVP1 150405Z 23014KT 18/M00 A2999 RMK A01 T01761003  RH  030%=      5-min Rain = 0
KVP1 150406Z 22014KT 18/M00 A2999 RMK A01 T01761002  RH  030%=      5-min Rain = 0
KVP1 150407Z 22014KT 18/M00 A2999 RMK A01 T01761002  RH  030%=      5-min Rain = 0
KVP1 150408Z 22014KT 18/M00 A2999 RMK A01 T01761002  RH  030%=      5-min Rain = 0
KVP1 150409Z 22013KT 18/M00 A2999 RMK A01 T01761002  RH  030%=      5-min Rain = 0
KVP1 150410Z 22013KT 18/M00 A2999 RMK A01 T01761002  RH  030%=      5-min Rain = 0
KVP1 150411Z 22011KT 18/M00 A2999 RMK A01 T01751002  RH  030%=      5-min Rain = 0
KVP1 150412Z 23012KT 17/M00 A2999 RMK A01 T01741002  RH  030%=      5-min Rain = 0
KVP1 150413Z 23012KT 17/M00 A2999 RMK A01 T01731002  RH  030%=      5-min Rain = 0
KVP1 150414Z 23011KT 17/M00 A2999 RMK A01 T01721003  RH  031%=      5-min Rain = 0
KVP1 150415Z 23011KT 17/M00 A2999 RMK A01 T01701003  RH  031%=      5-min Rain = 0
KVP1 150416Z 23011KT 17/M00 A2999 RMK A01 T01701003  RH  031%=      5-min Rain = 0
KVP1 150417Z 23011KT 17/M00 A2999 RMK A01 T01691003  RH  031%=      5-min Rain = 0
KVP1 150418Z 23010KT 17/M00 A2999 RMK A01 T01681003  RH  031%=      5-min Rain = 0
KVP1 150419Z 24010KT 17/M00 A2999 RMK A01 T01681002  RH  031%=      5-min Rain = 0
KVP1 150420Z 23011KT 17/M00 A2999 RMK A01 T01671003  RH  032%=      5-min Rain = 0
KVP1 150421Z 24011KT 17/M00 A2999 RMK A01 T01671002  RH  032%=      5-min Rain = 0
KVP1 150422Z 24011KT 17/M00 A2999 RMK A01 T01671003  RH  032%=      5-min Rain = 0
KVP1 150423Z 23011KT 17/M00 A2999 RMK A01 T01671003  RH  031%=      5-min Rain = 0
KVP1 150424Z 23011KT 17/M00 A2999 RMK A01 T01681002  RH  031%=      5-min Rain = 0
KVP1 150425Z 24011KT 17/M00 A2999 RMK A01 T01681003  RH  031%=      5-min Rain = 0
KVP1 150426Z 23011KT 17/M00 A2999 RMK A01 T01681003  RH  031%=      5-min Rain = 0
KVP1 150427Z 23011KT 17/M00 A2999 RMK A01 T01681003  RH  031%=      5-min Rain = 0
KVP1 150428Z 23010KT 17/M00 A2999 RMK A01 T01681003  RH  031%=      5-min Rain = 0
KVP1 150429Z 22011KT 17/M00 A2999 RMK A01 T01671003  RH  032%=      5-min Rain = 0
KVP1 150430Z 22010KT 17/M00 A2999 RMK A01 T01671003  RH  032%=      5-min Rain = 0
KVP1 150431Z 23011KT 17/M00 A2999 RMK A01 T01661003  RH  032%=      5-min Rain = 0
KVP1 150432Z 23011KT 17/M00 A2999 RMK A01 T01651003  RH  032%=      5-min Rain = 0
KVP1 150433Z 23011KT 16/M00 A2999 RMK A01 T01641004  RH  032%=      5-min Rain = 0
KVP1 150434Z 23011KT 16/M00 A2999 RMK A01 T01641003  RH  032%=      5-min Rain = 0
KVP1 150435Z 23011KT 16/M00 A2999 RMK A01 T01631003  RH  032%=      5-min Rain = 0
KVP1 150436Z 23013KT 16/M00 A2999 RMK A01 T01631004  RH  032%=      5-min Rain = 0
KVP1 150437Z 23012KT 16/M00 A2999 RMK A01 T01631003  RH  032%=      5-min Rain = 0
KVP1 150438Z 23012KT 16/M00 A2999 RMK A01 T01631003  RH  032%=      5-min Rain = 0
KVP1 150439Z 23012KT 16/M00 A2999 RMK A01 T01631003  RH  032%=      5-min Rain = 0
KVP1 150440Z 23011KT 16/M00 A2999 RMK A01 T01631003  RH  032%=      5-min Rain = 0
KVP1 150441Z 23012KT 16/M00 A2999 RMK A01 T01621003  RH  032%=      5-min Rain = 0
KVP1 150442Z 23011KT 16/M00 A2999 RMK A01 T01611004  RH  032%=      5-min Rain = 0
KVP1 150443Z 23012KT 16/M00 A2999 RMK A01 T01611003  RH  033%=      5-min Rain = 0
KVP1 150444Z 23012KT 16/M00 A2999 RMK A01 T01601004  RH  033%=      5-min Rain = 0
KVP1 150445Z 23012KT 16/M00 A2999 RMK A01 T01601003  RH  033%=      5-min Rain = 0
KVP1 150446Z 23012KT 16/M00 A2999 RMK A01 T01611003  RH  033%=      5-min Rain = 0
KVP1 150447Z 23013KT 16/M00 A2999 RMK A01 T01611003  RH  033%=      5-min Rain = 0
KVP1 150448Z 24012KT 16/M00 A2999 RMK A01 T01611003  RH  033%=      5-min Rain = 0
KVP1 150449Z 24013KT 16/M00 A2999 RMK A01 T01601004  RH  033%=      5-min Rain = 0
KVP1 150450Z 24012KT 16/M00 A2999 RMK A01 T01601004  RH  033%=      5-min Rain = 0
KVP1 150451Z 24012KT 16/M00 A2999 RMK A01 T01601004  RH  033%=      5-min Rain = 0
KVP1 150452Z 24012KT 16/M00 A2999 RMK A01 T01591004  RH  033%=      5-min Rain = 0
KVP1 150453Z 24012KT 16/M00 A2999 RMK A01 T01591004  RH  033%=      5-min Rain = 0
KVP1 150454Z 24012KT 16/M00 A2998 RMK A01 T01581004  RH  033%=      5-min Rain = 0
KVP1 150455Z 24011KT 16/M00 A2998 RMK A01 T01571004  RH  033%=      5-min Rain = 0
KVP1 150456Z 24011KT 16/M01 A2998 RMK A01 T01561005  RH  033%=      5-min Rain = 0
KVP1 150457Z 24011KT 15/M01 A2998 RMK A01 T01541005  RH  034%=      5-min Rain = 0
KVP1 150458Z 24010KT 15/M01 A2998 RMK A01 T01541005  RH  034%=      5-min Rain = 0
KVP1 150459Z 24011KT 15/M01 A2998 RMK A01 T01531005  RH  034%=      5-min Rain = 0
KVP1 150500Z 24010KT 15/M01 A2998 RMK A01 T01521005  RH  034%=      5-min Rain = 0
KVP1 150501Z 24011KT 15/M01 A2998 RMK A01 T01511005  RH  034%=      5-min Rain = 0
KVP1 150502Z 24011KT 15/M01 A2998 RMK A01 T01501005  RH  035%=      5-min Rain = 0
KVP1 150503Z 24010KT 15/M01 A2998 RMK A01 T01491005  RH  035%=      5-min Rain = 0
KVP1 150504Z 24010KT 15/M01 A2998 RMK A01 T01491005  RH  035%=      5-min Rain = 0
KVP1 150505Z 24011KT 15/M01 A2998 RMK A01 T01491005  RH  035%=      5-min Rain = 0
KVP1 150506Z 24011KT 15/M01 A2998 RMK A01 T01491005  RH  035%=      5-min Rain = 0
KVP1 150507Z 24011KT 15/M00 A2998 RMK A01 T01491004  RH  035%=      5-min Rain = 0
KVP1 150508Z 24011KT 15/M01 A2998 RMK A01 T01491005  RH  035%=      5-min Rain = 0
KVP1 150509Z 24011KT 15/M01 A2998 RMK A01 T01481005  RH  035%=      5-min Rain = 0
KVP1 150510Z 24010KT 15/M01 A2998 RMK A01 T01471005  RH  035%=      5-min Rain = 0
KVP1 150511Z 23010KT 15/M01 A2998 RMK A01 T01461005  RH  035%=      5-min Rain = 0
KVP1 150512Z 23010KT 15/M00 A2998 RMK A01 T01461004  RH  036%=      5-min Rain = 0
KVP1 150513Z 23010KT 15/M01 A2999 RMK A01 T01461005  RH  036%=      5-min Rain = 0
KVP1 150514Z 23010KT 15/M01 A2999 RMK A01 T01451005  RH  036%=      5-min Rain = 0
KVP1 150515Z 23011KT 14/M01 A2999 RMK A01 T01431006  RH  036%=      5-min Rain = 0
KVP1 150516Z 22010KT 14/M01 A2999 RMK A01 T01411006  RH  036%=      5-min Rain = 0
KVP1 150517Z 22009KT 14/M01 A2999 RMK A01 T01391007  RH  037%=      5-min Rain = 0
KVP1 150518Z 21009KT 14/M01 A2999 RMK A01 T01371007  RH  037%=      5-min Rain = 0
KVP1 150519Z 21010KT 13/M01 A2999 RMK A01 T01341008  RH  038%=      5-min Rain = 0
KVP1 150520Z 20010KT 13/M01 A2999 RMK A01 T01301009  RH  038%=      5-min Rain = 0
KVP1 150521Z 19010KT 13/M01 A2999 RMK A01 T01271010  RH  039%=      5-min Rain = 0
KVP1 150522Z 19010KT 12/M01 A2999 RMK A01 T01241010  RH  039%=      5-min Rain = 0
KVP1 150523Z 18010KT 12/M01 A2999 RMK A01 T01221011  RH  040%=      5-min Rain = 0
KVP1 150524Z 19011KT 12/M01 A2999 RMK A01 T01201011  RH  040%=      5-min Rain = 0
KVP1 150525Z 19011KT 12/M01 A2999 RMK A01 T01201011  RH  040%=      5-min Rain = 0
KVP1 150526Z 19012KT 12/M01 A2999 RMK A01 T01191010  RH  041%=      5-min Rain = 0
KVP1 150527Z 19011KT 12/M01 A2999 RMK A01 T01201009  RH  041%=      5-min Rain = 0
KVP1 150528Z 20011KT 12/M01 A2999 RMK A01 T01221008  RH  041%=      5-min Rain = 0
KVP1 150529Z 20014KT 13/M01 A2999 RMK A01 T01251006  RH  041%=      5-min Rain = 0
KVP1 150530Z 20014KT 13/M00 A2999 RMK A01 T01291004  RH  040%=      5-min Rain = 0
KVP1 150531Z 21013KT 13/M00 A2999 RMK A01 T01321003  RH  039%=      5-min Rain = 0
KVP1 150532Z 21012KT 14/M00 A2999 RMK A01 T01361002  RH  039%=      5-min Rain = 0
KVP1 150533Z 22012KT 14/M00 A2999 RMK A01 T01371002  RH  038%=      5-min Rain = 0
KVP1 150534Z 22011KT 14/M00 A2999 RMK A01 T01381002  RH  038%=      5-min Rain = 0
KVP1 150535Z 22011KT 14/M00 A2999 RMK A01 T01381002  RH  038%=      5-min Rain = 0
KVP1 150536Z 23011KT 14/M00 A2998 RMK A01 T01391002  RH  038%=      5-min Rain = 0
KVP1 150537Z 23010KT 14/M00 A2998 RMK A01 T01401001  RH  038%=      5-min Rain = 0
KVP1 150538Z 23011KT 14/M00 A2998 RMK A01 T01411001  RH  038%=      5-min Rain = 0
KVP1 150539Z 23011KT 14/M00 A2998 RMK A01 T01411001  RH  038%=      5-min Rain = 0
KVP1 150540Z 23011KT 14/M00 A2998 RMK A01 T01401001  RH  038%=      5-min Rain = 0
KVP1 150541Z 23010KT 14/M00 A2998 RMK A01 T01401001  RH  038%=      5-min Rain = 0
KVP1 150542Z 23011KT 14/M00 A2998 RMK A01 T01391001  RH  038%=      5-min Rain = 0
KVP1 150543Z 23010KT 14/M00 A2998 RMK A01 T01391001  RH  038%=      5-min Rain = 0
KVP1 150544Z 22011KT 14/M00 A2998 RMK A01 T01391001  RH  038%=      5-min Rain = 0
KVP1 150545Z 22010KT 14/M00 A2998 RMK A01 T01401001  RH  038%=      5-min Rain = 0
KVP1 150546Z 22010KT 14/M00 A2998 RMK A01 T01391001  RH  038%=      5-min Rain = 0
KVP1 150547Z 22010KT 14/M00 A2999 RMK A01 T01391001  RH  038%=      5-min Rain = 0
KVP1 150548Z 23011KT 14/M00 A2999 RMK A01 T01391001  RH  038%=      5-min Rain = 0
KVP1 150549Z 23010KT 14/00 A2999 RMK A01 T013900-0  RH  038%=      5-min Rain = 0
KVP1 150550Z 22010KT 14/M00 A2999 RMK A01 T01391001  RH  038%=      5-min Rain = 0
KVP1 150551Z 22010KT 14/00 A2999 RMK A01 T013900-0  RH  038%=      5-min Rain = 0
KVP1 150552Z 23009KT 14/00 A2999 RMK A01 T014000-0  RH  038%=      5-min Rain = 0
KVP1 150553Z 22010KT 14/00 A2999 RMK A01 T014000-0  RH  038%=      5-min Rain = 0
KVP1 150554Z 22010KT 14/00 A2999 RMK A01 T014000-0  RH  038%=      5-min Rain = 0
KVP1 150555Z 22010KT 14/00 A2999 RMK A01 T014000-0  RH  038%=      5-min Rain = 0
KVP1 150556Z 22009KT 14/00 A2999 RMK A01 T014000-0  RH  038%=      5-min Rain = 0
KVP1 150557Z 22010KT 14/00 A2999 RMK A01 T01400000  RH  038%=      5-min Rain = 0
KVP1 150558Z 22010KT 14/00 A2999 RMK A01 T014000-0  RH  038%=      5-min Rain = 0
KVP1 150559Z 22010KT 14/00 A2999 RMK A01 T013900-0  RH  038%=      5-min Rain = 0

Page generated in 0.0344 seconds.